<?xml version="1.0" encoding="UTF-8" standalone="no" ?>
<gpx version="1.1" creator="Visorando" xmlns:xsi="http://www.w3.org/2001/XMLSchema-instance" xmlns="http://www.topografix.com/GPX/1/1" xsi:schemaLocation="http://www.topografix.com/GPX/1/1 http://www.topografix.com/GPX/1/1/gpx.xsd">
<metadata>
  <name>Randonnée du 18/12/2025 à 08:26</name>
  <link href="https://www.visorando.com/randonnee-89362203/">
    <text>https://www.visorando.com/randonnee-89362203/</text>
  </link>
</metadata><wpt lat="43.216918" lon="-1.453593">
  <ele>703</ele>
  <time>2025-12-18T07:26:38.000Z</time>
  <name>Point de passage 1</name>
  <type>GENERIC</type>
</wpt><wpt lat="43.216893" lon="-1.453544">
  <ele>704</ele>
  <time>2025-12-18T13:26:13.000Z</time>
  <name>Point de passage 2</name>
  <type>GENERIC</type>
</wpt><trk>
  <name>Randonnée du 18/12/2025 à 08:26</name>
  <trkseg>
    <trkpt lat="43.216918" lon="-1.453593">
      <ele>703</ele>
      <time>2025-12-18T07:26:38.000Z</time>
    </trkpt>
    <trkpt lat="43.216865" lon="-1.453546">
      <ele>713</ele>
      <time>2025-12-18T07:26:39.000Z</time>
    </trkpt>
    <trkpt lat="43.216712" lon="-1.453307">
      <ele>705</ele>
      <time>2025-12-18T07:34:35.000Z</time>
    </trkpt>
    <trkpt lat="43.216539" lon="-1.453098">
      <ele>706</ele>
      <time>2025-12-18T07:34:54.000Z</time>
    </trkpt>
    <trkpt lat="43.216321" lon="-1.452982">
      <ele>706</ele>
      <time>2025-12-18T07:35:14.000Z</time>
    </trkpt>
    <trkpt lat="43.21611" lon="-1.452856">
      <ele>701</ele>
      <time>2025-12-18T07:35:38.000Z</time>
    </trkpt>
    <trkpt lat="43.215936" lon="-1.452644">
      <ele>706</ele>
      <time>2025-12-18T07:35:56.000Z</time>
    </trkpt>
    <trkpt lat="43.215813" lon="-1.452376">
      <ele>702</ele>
      <time>2025-12-18T07:36:14.000Z</time>
    </trkpt>
    <trkpt lat="43.215719" lon="-1.45208">
      <ele>700</ele>
      <time>2025-12-18T07:36:33.000Z</time>
    </trkpt>
    <trkpt lat="43.215649" lon="-1.451778">
      <ele>692</ele>
      <time>2025-12-18T07:36:51.000Z</time>
    </trkpt>
    <trkpt lat="43.215569" lon="-1.451483">
      <ele>693</ele>
      <time>2025-12-18T07:37:07.000Z</time>
    </trkpt>
    <trkpt lat="43.215621" lon="-1.451182">
      <ele>695</ele>
      <time>2025-12-18T07:37:24.000Z</time>
    </trkpt>
    <trkpt lat="43.215833" lon="-1.451325">
      <ele>694</ele>
      <time>2025-12-18T07:37:44.000Z</time>
    </trkpt>
    <trkpt lat="43.216045" lon="-1.451438">
      <ele>692</ele>
      <time>2025-12-18T07:38:03.000Z</time>
    </trkpt>
    <trkpt lat="43.216271" lon="-1.451519">
      <ele>688</ele>
      <time>2025-12-18T07:38:25.000Z</time>
    </trkpt>
    <trkpt lat="43.216497" lon="-1.451438">
      <ele>689</ele>
      <time>2025-12-18T07:38:39.000Z</time>
    </trkpt>
    <trkpt lat="43.216726" lon="-1.451356">
      <ele>690</ele>
      <time>2025-12-18T07:38:57.000Z</time>
    </trkpt>
    <trkpt lat="43.216925" lon="-1.451184">
      <ele>691</ele>
      <time>2025-12-18T07:39:14.000Z</time>
    </trkpt>
    <trkpt lat="43.217045" lon="-1.45092">
      <ele>689</ele>
      <time>2025-12-18T07:39:32.000Z</time>
    </trkpt>
    <trkpt lat="43.217067" lon="-1.450611">
      <ele>690</ele>
      <time>2025-12-18T07:39:50.000Z</time>
    </trkpt>
    <trkpt lat="43.217124" lon="-1.450303">
      <ele>688</ele>
      <time>2025-12-18T07:40:31.000Z</time>
    </trkpt>
    <trkpt lat="43.217358" lon="-1.450311">
      <ele>690</ele>
      <time>2025-12-18T07:40:49.000Z</time>
    </trkpt>
    <trkpt lat="43.217591" lon="-1.450287">
      <ele>691</ele>
      <time>2025-12-18T07:41:10.000Z</time>
    </trkpt>
    <trkpt lat="43.217816" lon="-1.450241">
      <ele>691</ele>
      <time>2025-12-18T07:41:27.000Z</time>
    </trkpt>
    <trkpt lat="43.218033" lon="-1.450154">
      <ele>691</ele>
      <time>2025-12-18T07:41:45.000Z</time>
    </trkpt>
    <trkpt lat="43.218261" lon="-1.450063">
      <ele>693</ele>
      <time>2025-12-18T07:42:03.000Z</time>
    </trkpt>
    <trkpt lat="43.218477" lon="-1.449953">
      <ele>694</ele>
      <time>2025-12-18T07:42:21.000Z</time>
    </trkpt>
    <trkpt lat="43.218691" lon="-1.44983">
      <ele>696</ele>
      <time>2025-12-18T07:42:48.000Z</time>
    </trkpt>
    <trkpt lat="43.218913" lon="-1.449714">
      <ele>697</ele>
      <time>2025-12-18T07:43:05.000Z</time>
    </trkpt>
    <trkpt lat="43.219129" lon="-1.449572">
      <ele>699</ele>
      <time>2025-12-18T07:43:26.000Z</time>
    </trkpt>
    <trkpt lat="43.219337" lon="-1.449431">
      <ele>701</ele>
      <time>2025-12-18T07:43:44.000Z</time>
    </trkpt>
    <trkpt lat="43.219543" lon="-1.449292">
      <ele>702</ele>
      <time>2025-12-18T07:44:03.000Z</time>
    </trkpt>
    <trkpt lat="43.219754" lon="-1.449152">
      <ele>705</ele>
      <time>2025-12-18T07:44:26.000Z</time>
    </trkpt>
    <trkpt lat="43.219938" lon="-1.449337">
      <ele>693</ele>
      <time>2025-12-18T07:45:01.000Z</time>
    </trkpt>
    <trkpt lat="43.220155" lon="-1.449241">
      <ele>688</ele>
      <time>2025-12-18T07:45:39.000Z</time>
    </trkpt>
    <trkpt lat="43.220368" lon="-1.449116">
      <ele>683</ele>
      <time>2025-12-18T07:46:04.000Z</time>
    </trkpt>
    <trkpt lat="43.220573" lon="-1.448979">
      <ele>679</ele>
      <time>2025-12-18T07:46:25.000Z</time>
    </trkpt>
    <trkpt lat="43.220765" lon="-1.448812">
      <ele>677</ele>
      <time>2025-12-18T07:46:44.000Z</time>
    </trkpt>
    <trkpt lat="43.22099" lon="-1.448734">
      <ele>675</ele>
      <time>2025-12-18T07:47:04.000Z</time>
    </trkpt>
    <trkpt lat="43.221208" lon="-1.448639">
      <ele>669</ele>
      <time>2025-12-18T07:47:30.000Z</time>
    </trkpt>
    <trkpt lat="43.221433" lon="-1.448663">
      <ele>659</ele>
      <time>2025-12-18T07:48:39.000Z</time>
    </trkpt>
    <trkpt lat="43.221622" lon="-1.448836">
      <ele>644</ele>
      <time>2025-12-18T07:49:33.000Z</time>
    </trkpt>
    <trkpt lat="43.221814" lon="-1.448674">
      <ele>643</ele>
      <time>2025-12-18T07:50:12.000Z</time>
    </trkpt>
    <trkpt lat="43.2218" lon="-1.448357">
      <ele>640</ele>
      <time>2025-12-18T07:50:44.000Z</time>
    </trkpt>
    <trkpt lat="43.221884" lon="-1.448064">
      <ele>638</ele>
      <time>2025-12-18T07:51:05.000Z</time>
    </trkpt>
    <trkpt lat="43.22205" lon="-1.447834">
      <ele>637</ele>
      <time>2025-12-18T07:51:26.000Z</time>
    </trkpt>
    <trkpt lat="43.222187" lon="-1.447587">
      <ele>633</ele>
      <time>2025-12-18T07:51:46.000Z</time>
    </trkpt>
    <trkpt lat="43.222361" lon="-1.447381">
      <ele>630</ele>
      <time>2025-12-18T07:52:10.000Z</time>
    </trkpt>
    <trkpt lat="43.222362" lon="-1.447692">
      <ele>622</ele>
      <time>2025-12-18T07:52:57.000Z</time>
    </trkpt>
    <trkpt lat="43.222269" lon="-1.447985">
      <ele>619</ele>
      <time>2025-12-18T07:53:14.000Z</time>
    </trkpt>
    <trkpt lat="43.222303" lon="-1.448292">
      <ele>618</ele>
      <time>2025-12-18T07:53:31.000Z</time>
    </trkpt>
    <trkpt lat="43.222421" lon="-1.448566">
      <ele>614</ele>
      <time>2025-12-18T07:53:51.000Z</time>
    </trkpt>
    <trkpt lat="43.222325" lon="-1.448858">
      <ele>610</ele>
      <time>2025-12-18T07:54:09.000Z</time>
    </trkpt>
    <trkpt lat="43.22222" lon="-1.449149">
      <ele>609</ele>
      <time>2025-12-18T07:54:26.000Z</time>
    </trkpt>
    <trkpt lat="43.222137" lon="-1.449444">
      <ele>608</ele>
      <time>2025-12-18T07:54:44.000Z</time>
    </trkpt>
    <trkpt lat="43.222014" lon="-1.449709">
      <ele>606</ele>
      <time>2025-12-18T07:55:02.000Z</time>
    </trkpt>
    <trkpt lat="43.22186" lon="-1.449954">
      <ele>607</ele>
      <time>2025-12-18T07:55:19.000Z</time>
    </trkpt>
    <trkpt lat="43.2217" lon="-1.450178">
      <ele>610</ele>
      <time>2025-12-18T07:55:36.000Z</time>
    </trkpt>
    <trkpt lat="43.221931" lon="-1.450119">
      <ele>602</ele>
      <time>2025-12-18T07:56:26.000Z</time>
    </trkpt>
    <trkpt lat="43.222126" lon="-1.449938">
      <ele>600</ele>
      <time>2025-12-18T07:56:45.000Z</time>
    </trkpt>
    <trkpt lat="43.222287" lon="-1.449707">
      <ele>593</ele>
      <time>2025-12-18T07:58:22.000Z</time>
    </trkpt>
    <trkpt lat="43.222446" lon="-1.449486">
      <ele>591</ele>
      <time>2025-12-18T07:58:38.000Z</time>
    </trkpt>
    <trkpt lat="43.222606" lon="-1.449244">
      <ele>592</ele>
      <time>2025-12-18T07:58:53.000Z</time>
    </trkpt>
    <trkpt lat="43.222759" lon="-1.449002">
      <ele>589</ele>
      <time>2025-12-18T07:59:31.000Z</time>
    </trkpt>
    <trkpt lat="43.222948" lon="-1.448801">
      <ele>587</ele>
      <time>2025-12-18T07:59:46.000Z</time>
    </trkpt>
    <trkpt lat="43.223093" lon="-1.448548">
      <ele>583</ele>
      <time>2025-12-18T08:00:02.000Z</time>
    </trkpt>
    <trkpt lat="43.223104" lon="-1.448224">
      <ele>580</ele>
      <time>2025-12-18T08:00:17.000Z</time>
    </trkpt>
    <trkpt lat="43.223312" lon="-1.448096">
      <ele>574</ele>
      <time>2025-12-18T08:00:34.000Z</time>
    </trkpt>
    <trkpt lat="43.223547" lon="-1.4481">
      <ele>569</ele>
      <time>2025-12-18T08:00:50.000Z</time>
    </trkpt>
    <trkpt lat="43.223773" lon="-1.448003">
      <ele>564</ele>
      <time>2025-12-18T08:01:09.000Z</time>
    </trkpt>
    <trkpt lat="43.223966" lon="-1.447825">
      <ele>561</ele>
      <time>2025-12-18T08:01:25.000Z</time>
    </trkpt>
    <trkpt lat="43.224159" lon="-1.447666">
      <ele>557</ele>
      <time>2025-12-18T08:01:41.000Z</time>
    </trkpt>
    <trkpt lat="43.224331" lon="-1.447467">
      <ele>556</ele>
      <time>2025-12-18T08:01:57.000Z</time>
    </trkpt>
    <trkpt lat="43.224318" lon="-1.447158">
      <ele>553</ele>
      <time>2025-12-18T08:02:12.000Z</time>
    </trkpt>
    <trkpt lat="43.224254" lon="-1.446844">
      <ele>550</ele>
      <time>2025-12-18T08:02:33.000Z</time>
    </trkpt>
    <trkpt lat="43.224138" lon="-1.446571">
      <ele>547</ele>
      <time>2025-12-18T08:02:50.000Z</time>
    </trkpt>
    <trkpt lat="43.223989" lon="-1.446336">
      <ele>547</ele>
      <time>2025-12-18T08:03:06.000Z</time>
    </trkpt>
    <trkpt lat="43.224148" lon="-1.446117">
      <ele>551</ele>
      <time>2025-12-18T08:03:28.000Z</time>
    </trkpt>
    <trkpt lat="43.224378" lon="-1.44619">
      <ele>548</ele>
      <time>2025-12-18T08:03:46.000Z</time>
    </trkpt>
    <trkpt lat="43.224609" lon="-1.446261">
      <ele>544</ele>
      <time>2025-12-18T08:04:03.000Z</time>
    </trkpt>
    <trkpt lat="43.224843" lon="-1.4462">
      <ele>541</ele>
      <time>2025-12-18T08:04:20.000Z</time>
    </trkpt>
    <trkpt lat="43.225079" lon="-1.446193">
      <ele>539</ele>
      <time>2025-12-18T08:04:37.000Z</time>
    </trkpt>
    <trkpt lat="43.225285" lon="-1.446322">
      <ele>536</ele>
      <time>2025-12-18T08:04:52.000Z</time>
    </trkpt>
    <trkpt lat="43.225499" lon="-1.44645">
      <ele>532</ele>
      <time>2025-12-18T08:05:09.000Z</time>
    </trkpt>
    <trkpt lat="43.2257" lon="-1.446618">
      <ele>529</ele>
      <time>2025-12-18T08:05:25.000Z</time>
    </trkpt>
    <trkpt lat="43.225919" lon="-1.446722">
      <ele>527</ele>
      <time>2025-12-18T08:05:42.000Z</time>
    </trkpt>
    <trkpt lat="43.226092" lon="-1.446507">
      <ele>524</ele>
      <time>2025-12-18T08:05:59.000Z</time>
    </trkpt>
    <trkpt lat="43.226201" lon="-1.446219">
      <ele>524</ele>
      <time>2025-12-18T08:06:15.000Z</time>
    </trkpt>
    <trkpt lat="43.226361" lon="-1.445986">
      <ele>524</ele>
      <time>2025-12-18T08:06:32.000Z</time>
    </trkpt>
    <trkpt lat="43.226519" lon="-1.445749">
      <ele>520</ele>
      <time>2025-12-18T08:06:50.000Z</time>
    </trkpt>
    <trkpt lat="43.226698" lon="-1.445546">
      <ele>521</ele>
      <time>2025-12-18T08:07:07.000Z</time>
    </trkpt>
    <trkpt lat="43.226894" lon="-1.44538">
      <ele>521</ele>
      <time>2025-12-18T08:07:24.000Z</time>
    </trkpt>
    <trkpt lat="43.227094" lon="-1.445223">
      <ele>518</ele>
      <time>2025-12-18T08:07:41.000Z</time>
    </trkpt>
    <trkpt lat="43.227312" lon="-1.445099">
      <ele>519</ele>
      <time>2025-12-18T08:07:59.000Z</time>
    </trkpt>
    <trkpt lat="43.227529" lon="-1.444981">
      <ele>519</ele>
      <time>2025-12-18T08:08:16.000Z</time>
    </trkpt>
    <trkpt lat="43.227748" lon="-1.44488">
      <ele>521</ele>
      <time>2025-12-18T08:08:32.000Z</time>
    </trkpt>
    <trkpt lat="43.22798" lon="-1.444852">
      <ele>523</ele>
      <time>2025-12-18T08:08:50.000Z</time>
    </trkpt>
    <trkpt lat="43.228207" lon="-1.444826">
      <ele>521</ele>
      <time>2025-12-18T08:09:07.000Z</time>
    </trkpt>
    <trkpt lat="43.228406" lon="-1.444657">
      <ele>525</ele>
      <time>2025-12-18T08:09:25.000Z</time>
    </trkpt>
    <trkpt lat="43.228595" lon="-1.444463">
      <ele>525</ele>
      <time>2025-12-18T08:09:43.000Z</time>
    </trkpt>
    <trkpt lat="43.228817" lon="-1.444393">
      <ele>527</ele>
      <time>2025-12-18T08:10:00.000Z</time>
    </trkpt>
    <trkpt lat="43.229029" lon="-1.444289">
      <ele>529</ele>
      <time>2025-12-18T08:10:19.000Z</time>
    </trkpt>
    <trkpt lat="43.229233" lon="-1.444157">
      <ele>529</ele>
      <time>2025-12-18T08:10:36.000Z</time>
    </trkpt>
    <trkpt lat="43.22944" lon="-1.444005">
      <ele>526</ele>
      <time>2025-12-18T08:10:53.000Z</time>
    </trkpt>
    <trkpt lat="43.229665" lon="-1.443949">
      <ele>523</ele>
      <time>2025-12-18T08:11:12.000Z</time>
    </trkpt>
    <trkpt lat="43.2299" lon="-1.443891">
      <ele>521</ele>
      <time>2025-12-18T08:11:29.000Z</time>
    </trkpt>
    <trkpt lat="43.230059" lon="-1.443659">
      <ele>520</ele>
      <time>2025-12-18T08:11:45.000Z</time>
    </trkpt>
    <trkpt lat="43.230199" lon="-1.4434">
      <ele>518</ele>
      <time>2025-12-18T08:12:02.000Z</time>
    </trkpt>
    <trkpt lat="43.230267" lon="-1.443094">
      <ele>514</ele>
      <time>2025-12-18T08:12:21.000Z</time>
    </trkpt>
    <trkpt lat="43.230275" lon="-1.442784">
      <ele>512</ele>
      <time>2025-12-18T08:12:37.000Z</time>
    </trkpt>
    <trkpt lat="43.23024" lon="-1.442475">
      <ele>511</ele>
      <time>2025-12-18T08:12:52.000Z</time>
    </trkpt>
    <trkpt lat="43.230166" lon="-1.442167">
      <ele>511</ele>
      <time>2025-12-18T08:13:08.000Z</time>
    </trkpt>
    <trkpt lat="43.230327" lon="-1.441942">
      <ele>506</ele>
      <time>2025-12-18T08:13:29.000Z</time>
    </trkpt>
    <trkpt lat="43.23047" lon="-1.4422">
      <ele>501</ele>
      <time>2025-12-18T08:13:47.000Z</time>
    </trkpt>
    <trkpt lat="43.23066" lon="-1.442382">
      <ele>499</ele>
      <time>2025-12-18T08:14:04.000Z</time>
    </trkpt>
    <trkpt lat="43.230868" lon="-1.442527">
      <ele>494</ele>
      <time>2025-12-18T08:14:21.000Z</time>
    </trkpt>
    <trkpt lat="43.231086" lon="-1.442616">
      <ele>491</ele>
      <time>2025-12-18T08:14:37.000Z</time>
    </trkpt>
    <trkpt lat="43.231312" lon="-1.442695">
      <ele>485</ele>
      <time>2025-12-18T08:14:55.000Z</time>
    </trkpt>
    <trkpt lat="43.231532" lon="-1.442796">
      <ele>481</ele>
      <time>2025-12-18T08:15:13.000Z</time>
    </trkpt>
    <trkpt lat="43.231753" lon="-1.442862">
      <ele>481</ele>
      <time>2025-12-18T08:15:36.000Z</time>
    </trkpt>
    <trkpt lat="43.231984" lon="-1.442882">
      <ele>476</ele>
      <time>2025-12-18T08:15:53.000Z</time>
    </trkpt>
    <trkpt lat="43.232213" lon="-1.44283">
      <ele>473</ele>
      <time>2025-12-18T08:16:08.000Z</time>
    </trkpt>
    <trkpt lat="43.232424" lon="-1.442698">
      <ele>469</ele>
      <time>2025-12-18T08:16:24.000Z</time>
    </trkpt>
    <trkpt lat="43.23264" lon="-1.442609">
      <ele>466</ele>
      <time>2025-12-18T08:16:42.000Z</time>
    </trkpt>
    <trkpt lat="43.232849" lon="-1.442488">
      <ele>460</ele>
      <time>2025-12-18T08:16:57.000Z</time>
    </trkpt>
    <trkpt lat="43.233014" lon="-1.442263">
      <ele>460</ele>
      <time>2025-12-18T08:26:13.000Z</time>
    </trkpt>
    <trkpt lat="43.233173" lon="-1.44204">
      <ele>458</ele>
      <time>2025-12-18T08:27:45.000Z</time>
    </trkpt>
    <trkpt lat="43.233393" lon="-1.441972">
      <ele>458</ele>
      <time>2025-12-18T08:28:00.000Z</time>
    </trkpt>
    <trkpt lat="43.233631" lon="-1.441924">
      <ele>454</ele>
      <time>2025-12-18T08:28:16.000Z</time>
    </trkpt>
    <trkpt lat="43.233857" lon="-1.441877">
      <ele>453</ele>
      <time>2025-12-18T08:28:31.000Z</time>
    </trkpt>
    <trkpt lat="43.234088" lon="-1.441876">
      <ele>450</ele>
      <time>2025-12-18T08:28:46.000Z</time>
    </trkpt>
    <trkpt lat="43.234317" lon="-1.441894">
      <ele>448</ele>
      <time>2025-12-18T08:29:01.000Z</time>
    </trkpt>
    <trkpt lat="43.234542" lon="-1.441909">
      <ele>443</ele>
      <time>2025-12-18T08:29:17.000Z</time>
    </trkpt>
    <trkpt lat="43.234765" lon="-1.441949">
      <ele>439</ele>
      <time>2025-12-18T08:29:32.000Z</time>
    </trkpt>
    <trkpt lat="43.235001" lon="-1.441979">
      <ele>439</ele>
      <time>2025-12-18T08:29:48.000Z</time>
    </trkpt>
    <trkpt lat="43.235227" lon="-1.441972">
      <ele>436</ele>
      <time>2025-12-18T08:30:03.000Z</time>
    </trkpt>
    <trkpt lat="43.235465" lon="-1.441983">
      <ele>433</ele>
      <time>2025-12-18T08:30:20.000Z</time>
    </trkpt>
    <trkpt lat="43.235702" lon="-1.442">
      <ele>430</ele>
      <time>2025-12-18T08:30:34.000Z</time>
    </trkpt>
    <trkpt lat="43.235931" lon="-1.442062">
      <ele>427</ele>
      <time>2025-12-18T08:30:50.000Z</time>
    </trkpt>
    <trkpt lat="43.236165" lon="-1.442127">
      <ele>427</ele>
      <time>2025-12-18T08:31:04.000Z</time>
    </trkpt>
    <trkpt lat="43.236398" lon="-1.442112">
      <ele>423</ele>
      <time>2025-12-18T08:31:20.000Z</time>
    </trkpt>
    <trkpt lat="43.236611" lon="-1.441983">
      <ele>421</ele>
      <time>2025-12-18T08:31:35.000Z</time>
    </trkpt>
    <trkpt lat="43.236813" lon="-1.441831">
      <ele>421</ele>
      <time>2025-12-18T08:31:50.000Z</time>
    </trkpt>
    <trkpt lat="43.237022" lon="-1.441696">
      <ele>415</ele>
      <time>2025-12-18T08:32:05.000Z</time>
    </trkpt>
    <trkpt lat="43.237219" lon="-1.441515">
      <ele>411</ele>
      <time>2025-12-18T08:32:21.000Z</time>
    </trkpt>
    <trkpt lat="43.237393" lon="-1.441303">
      <ele>408</ele>
      <time>2025-12-18T08:32:37.000Z</time>
    </trkpt>
    <trkpt lat="43.237578" lon="-1.441112">
      <ele>406</ele>
      <time>2025-12-18T08:32:53.000Z</time>
    </trkpt>
    <trkpt lat="43.23781" lon="-1.441031">
      <ele>403</ele>
      <time>2025-12-18T08:33:09.000Z</time>
    </trkpt>
    <trkpt lat="43.238038" lon="-1.440991">
      <ele>399</ele>
      <time>2025-12-18T08:33:25.000Z</time>
    </trkpt>
    <trkpt lat="43.238259" lon="-1.440931">
      <ele>395</ele>
      <time>2025-12-18T08:33:43.000Z</time>
    </trkpt>
    <trkpt lat="43.238486" lon="-1.440859">
      <ele>393</ele>
      <time>2025-12-18T08:34:00.000Z</time>
    </trkpt>
    <trkpt lat="43.238713" lon="-1.440832">
      <ele>390</ele>
      <time>2025-12-18T08:34:17.000Z</time>
    </trkpt>
    <trkpt lat="43.23895" lon="-1.440846">
      <ele>387</ele>
      <time>2025-12-18T08:34:34.000Z</time>
    </trkpt>
    <trkpt lat="43.239176" lon="-1.440834">
      <ele>383</ele>
      <time>2025-12-18T08:34:50.000Z</time>
    </trkpt>
    <trkpt lat="43.239406" lon="-1.440827">
      <ele>380</ele>
      <time>2025-12-18T08:35:08.000Z</time>
    </trkpt>
    <trkpt lat="43.239609" lon="-1.441014">
      <ele>378</ele>
      <time>2025-12-18T08:35:26.000Z</time>
    </trkpt>
    <trkpt lat="43.239825" lon="-1.441122">
      <ele>379</ele>
      <time>2025-12-18T08:35:42.000Z</time>
    </trkpt>
    <trkpt lat="43.239871" lon="-1.441433">
      <ele>374</ele>
      <time>2025-12-18T08:36:04.000Z</time>
    </trkpt>
    <trkpt lat="43.239755" lon="-1.441706">
      <ele>376</ele>
      <time>2025-12-18T08:36:22.000Z</time>
    </trkpt>
    <trkpt lat="43.239672" lon="-1.44201">
      <ele>375</ele>
      <time>2025-12-18T08:36:40.000Z</time>
    </trkpt>
    <trkpt lat="43.239623" lon="-1.442318">
      <ele>376</ele>
      <time>2025-12-18T08:36:55.000Z</time>
    </trkpt>
    <trkpt lat="43.239521" lon="-1.442605">
      <ele>369</ele>
      <time>2025-12-18T08:37:15.000Z</time>
    </trkpt>
    <trkpt lat="43.239391" lon="-1.44286">
      <ele>365</ele>
      <time>2025-12-18T08:37:35.000Z</time>
    </trkpt>
    <trkpt lat="43.239619" lon="-1.442773">
      <ele>360</ele>
      <time>2025-12-18T08:37:56.000Z</time>
    </trkpt>
    <trkpt lat="43.239763" lon="-1.442533">
      <ele>357</ele>
      <time>2025-12-18T08:38:13.000Z</time>
    </trkpt>
    <trkpt lat="43.239893" lon="-1.442274">
      <ele>359</ele>
      <time>2025-12-18T08:38:28.000Z</time>
    </trkpt>
    <trkpt lat="43.240037" lon="-1.442016">
      <ele>358</ele>
      <time>2025-12-18T08:38:45.000Z</time>
    </trkpt>
    <trkpt lat="43.24019" lon="-1.441774">
      <ele>357</ele>
      <time>2025-12-18T08:39:03.000Z</time>
    </trkpt>
    <trkpt lat="43.240375" lon="-1.441597">
      <ele>355</ele>
      <time>2025-12-18T08:39:18.000Z</time>
    </trkpt>
    <trkpt lat="43.240525" lon="-1.441355">
      <ele>356</ele>
      <time>2025-12-18T08:39:34.000Z</time>
    </trkpt>
    <trkpt lat="43.240627" lon="-1.44107">
      <ele>356</ele>
      <time>2025-12-18T08:39:50.000Z</time>
    </trkpt>
    <trkpt lat="43.240863" lon="-1.441013">
      <ele>351</ele>
      <time>2025-12-18T08:40:10.000Z</time>
    </trkpt>
    <trkpt lat="43.241088" lon="-1.441075">
      <ele>346</ele>
      <time>2025-12-18T08:40:28.000Z</time>
    </trkpt>
    <trkpt lat="43.241318" lon="-1.441156">
      <ele>344</ele>
      <time>2025-12-18T08:40:45.000Z</time>
    </trkpt>
    <trkpt lat="43.241555" lon="-1.441192">
      <ele>340</ele>
      <time>2025-12-18T08:41:02.000Z</time>
    </trkpt>
    <trkpt lat="43.241751" lon="-1.441023">
      <ele>338</ele>
      <time>2025-12-18T08:41:17.000Z</time>
    </trkpt>
    <trkpt lat="43.241953" lon="-1.440861">
      <ele>340</ele>
      <time>2025-12-18T08:41:32.000Z</time>
    </trkpt>
    <trkpt lat="43.242147" lon="-1.440695">
      <ele>339</ele>
      <time>2025-12-18T08:41:48.000Z</time>
    </trkpt>
    <trkpt lat="43.242364" lon="-1.440576">
      <ele>341</ele>
      <time>2025-12-18T08:42:06.000Z</time>
    </trkpt>
    <trkpt lat="43.242596" lon="-1.440532">
      <ele>341</ele>
      <time>2025-12-18T08:42:22.000Z</time>
    </trkpt>
    <trkpt lat="43.242814" lon="-1.440439">
      <ele>340</ele>
      <time>2025-12-18T08:42:38.000Z</time>
    </trkpt>
    <trkpt lat="43.243021" lon="-1.440277">
      <ele>337</ele>
      <time>2025-12-18T08:42:56.000Z</time>
    </trkpt>
    <trkpt lat="43.243197" lon="-1.440076">
      <ele>335</ele>
      <time>2025-12-18T08:43:13.000Z</time>
    </trkpt>
    <trkpt lat="43.243351" lon="-1.439846">
      <ele>334</ele>
      <time>2025-12-18T08:43:29.000Z</time>
    </trkpt>
    <trkpt lat="43.24348" lon="-1.439591">
      <ele>333</ele>
      <time>2025-12-18T08:43:44.000Z</time>
    </trkpt>
    <trkpt lat="43.243614" lon="-1.439332">
      <ele>329</ele>
      <time>2025-12-18T08:44:01.000Z</time>
    </trkpt>
    <trkpt lat="43.243776" lon="-1.439108">
      <ele>330</ele>
      <time>2025-12-18T08:44:15.000Z</time>
    </trkpt>
    <trkpt lat="43.243927" lon="-1.438845">
      <ele>330</ele>
      <time>2025-12-18T08:44:32.000Z</time>
    </trkpt>
    <trkpt lat="43.244066" lon="-1.438595">
      <ele>329</ele>
      <time>2025-12-18T08:44:46.000Z</time>
    </trkpt>
    <trkpt lat="43.24425" lon="-1.438402">
      <ele>325</ele>
      <time>2025-12-18T08:45:10.000Z</time>
    </trkpt>
    <trkpt lat="43.244084" lon="-1.438623">
      <ele>329</ele>
      <time>2025-12-18T08:45:45.000Z</time>
    </trkpt>
    <trkpt lat="43.243931" lon="-1.438857">
      <ele>332</ele>
      <time>2025-12-18T08:46:04.000Z</time>
    </trkpt>
    <trkpt lat="43.243782" lon="-1.439097">
      <ele>330</ele>
      <time>2025-12-18T08:46:22.000Z</time>
    </trkpt>
    <trkpt lat="43.243617" lon="-1.439329">
      <ele>331</ele>
      <time>2025-12-18T08:46:40.000Z</time>
    </trkpt>
    <trkpt lat="43.243564" lon="-1.439638">
      <ele>333</ele>
      <time>2025-12-18T08:47:05.000Z</time>
    </trkpt>
    <trkpt lat="43.243509" lon="-1.43995">
      <ele>329</ele>
      <time>2025-12-18T08:48:19.000Z</time>
    </trkpt>
    <trkpt lat="43.243736" lon="-1.439885">
      <ele>328</ele>
      <time>2025-12-18T08:48:51.000Z</time>
    </trkpt>
    <trkpt lat="43.24383" lon="-1.439599">
      <ele>329</ele>
      <time>2025-12-18T08:49:08.000Z</time>
    </trkpt>
    <trkpt lat="43.244008" lon="-1.439385">
      <ele>330</ele>
      <time>2025-12-18T08:49:27.000Z</time>
    </trkpt>
    <trkpt lat="43.244231" lon="-1.439273">
      <ele>328</ele>
      <time>2025-12-18T08:49:44.000Z</time>
    </trkpt>
    <trkpt lat="43.244438" lon="-1.439121">
      <ele>324</ele>
      <time>2025-12-18T08:50:17.000Z</time>
    </trkpt>
    <trkpt lat="43.244621" lon="-1.438914">
      <ele>324</ele>
      <time>2025-12-18T08:50:34.000Z</time>
    </trkpt>
    <trkpt lat="43.244804" lon="-1.438722">
      <ele>322</ele>
      <time>2025-12-18T08:50:52.000Z</time>
    </trkpt>
    <trkpt lat="43.244929" lon="-1.438465">
      <ele>321</ele>
      <time>2025-12-18T08:52:02.000Z</time>
    </trkpt>
    <trkpt lat="43.245145" lon="-1.438376">
      <ele>321</ele>
      <time>2025-12-18T08:53:41.000Z</time>
    </trkpt>
    <trkpt lat="43.244918" lon="-1.438402">
      <ele>321</ele>
      <time>2025-12-18T08:54:35.000Z</time>
    </trkpt>
    <trkpt lat="43.245095" lon="-1.438599">
      <ele>321</ele>
      <time>2025-12-18T09:00:41.000Z</time>
    </trkpt>
    <trkpt lat="43.244873" lon="-1.438657">
      <ele>321</ele>
      <time>2025-12-18T09:01:00.000Z</time>
    </trkpt>
    <trkpt lat="43.244701" lon="-1.438861">
      <ele>319</ele>
      <time>2025-12-18T09:01:21.000Z</time>
    </trkpt>
    <trkpt lat="43.244504" lon="-1.439026">
      <ele>325</ele>
      <time>2025-12-18T09:01:42.000Z</time>
    </trkpt>
    <trkpt lat="43.244315" lon="-1.439204">
      <ele>324</ele>
      <time>2025-12-18T09:02:03.000Z</time>
    </trkpt>
    <trkpt lat="43.244096" lon="-1.439343">
      <ele>326</ele>
      <time>2025-12-18T09:02:23.000Z</time>
    </trkpt>
    <trkpt lat="43.243901" lon="-1.43952">
      <ele>327</ele>
      <time>2025-12-18T09:02:40.000Z</time>
    </trkpt>
    <trkpt lat="43.243786" lon="-1.439802">
      <ele>326</ele>
      <time>2025-12-18T09:02:59.000Z</time>
    </trkpt>
    <trkpt lat="43.243707" lon="-1.440101">
      <ele>329</ele>
      <time>2025-12-18T09:03:19.000Z</time>
    </trkpt>
    <trkpt lat="43.243515" lon="-1.439931">
      <ele>331</ele>
      <time>2025-12-18T09:03:45.000Z</time>
    </trkpt>
    <trkpt lat="43.243526" lon="-1.439623">
      <ele>333</ele>
      <time>2025-12-18T09:04:06.000Z</time>
    </trkpt>
    <trkpt lat="43.243613" lon="-1.439331">
      <ele>329</ele>
      <time>2025-12-18T09:04:28.000Z</time>
    </trkpt>
    <trkpt lat="43.243769" lon="-1.439095">
      <ele>327</ele>
      <time>2025-12-18T09:04:47.000Z</time>
    </trkpt>
    <trkpt lat="43.243927" lon="-1.438864">
      <ele>327</ele>
      <time>2025-12-18T09:05:06.000Z</time>
    </trkpt>
    <trkpt lat="43.244067" lon="-1.438609">
      <ele>327</ele>
      <time>2025-12-18T09:05:23.000Z</time>
    </trkpt>
    <trkpt lat="43.244234" lon="-1.438371">
      <ele>327</ele>
      <time>2025-12-18T09:05:41.000Z</time>
    </trkpt>
    <trkpt lat="43.244424" lon="-1.438194">
      <ele>327</ele>
      <time>2025-12-18T09:05:59.000Z</time>
    </trkpt>
    <trkpt lat="43.244584" lon="-1.437967">
      <ele>324</ele>
      <time>2025-12-18T09:06:17.000Z</time>
    </trkpt>
    <trkpt lat="43.244753" lon="-1.437749">
      <ele>323</ele>
      <time>2025-12-18T09:06:36.000Z</time>
    </trkpt>
    <trkpt lat="43.244929" lon="-1.437534">
      <ele>325</ele>
      <time>2025-12-18T09:06:53.000Z</time>
    </trkpt>
    <trkpt lat="43.245108" lon="-1.437322">
      <ele>325</ele>
      <time>2025-12-18T09:07:11.000Z</time>
    </trkpt>
    <trkpt lat="43.245171" lon="-1.437021">
      <ele>329</ele>
      <time>2025-12-18T09:07:30.000Z</time>
    </trkpt>
    <trkpt lat="43.245258" lon="-1.436732">
      <ele>334</ele>
      <time>2025-12-18T09:08:03.000Z</time>
    </trkpt>
    <trkpt lat="43.245277" lon="-1.436423">
      <ele>338</ele>
      <time>2025-12-18T09:08:31.000Z</time>
    </trkpt>
    <trkpt lat="43.245394" lon="-1.436153">
      <ele>344</ele>
      <time>2025-12-18T09:08:57.000Z</time>
    </trkpt>
    <trkpt lat="43.245527" lon="-1.435894">
      <ele>347</ele>
      <time>2025-12-18T09:09:26.000Z</time>
    </trkpt>
    <trkpt lat="43.245704" lon="-1.435692">
      <ele>350</ele>
      <time>2025-12-18T09:09:49.000Z</time>
    </trkpt>
    <trkpt lat="43.245928" lon="-1.435593">
      <ele>353</ele>
      <time>2025-12-18T09:10:19.000Z</time>
    </trkpt>
    <trkpt lat="43.246142" lon="-1.43549">
      <ele>361</ele>
      <time>2025-12-18T09:10:45.000Z</time>
    </trkpt>
    <trkpt lat="43.24633" lon="-1.435319">
      <ele>361</ele>
      <time>2025-12-18T09:11:10.000Z</time>
    </trkpt>
    <trkpt lat="43.246496" lon="-1.435093">
      <ele>364</ele>
      <time>2025-12-18T09:11:36.000Z</time>
    </trkpt>
    <trkpt lat="43.246645" lon="-1.434854">
      <ele>370</ele>
      <time>2025-12-18T09:12:01.000Z</time>
    </trkpt>
    <trkpt lat="43.246747" lon="-1.43457">
      <ele>373</ele>
      <time>2025-12-18T09:12:27.000Z</time>
    </trkpt>
    <trkpt lat="43.246774" lon="-1.434263">
      <ele>377</ele>
      <time>2025-12-18T09:12:50.000Z</time>
    </trkpt>
    <trkpt lat="43.246739" lon="-1.433953">
      <ele>379</ele>
      <time>2025-12-18T09:13:14.000Z</time>
    </trkpt>
    <trkpt lat="43.246702" lon="-1.433645">
      <ele>382</ele>
      <time>2025-12-18T09:13:38.000Z</time>
    </trkpt>
    <trkpt lat="43.246656" lon="-1.433331">
      <ele>384</ele>
      <time>2025-12-18T09:14:06.000Z</time>
    </trkpt>
    <trkpt lat="43.2466" lon="-1.433028">
      <ele>386</ele>
      <time>2025-12-18T09:14:30.000Z</time>
    </trkpt>
    <trkpt lat="43.246535" lon="-1.432733">
      <ele>392</ele>
      <time>2025-12-18T09:14:53.000Z</time>
    </trkpt>
    <trkpt lat="43.246561" lon="-1.432427">
      <ele>392</ele>
      <time>2025-12-18T09:15:17.000Z</time>
    </trkpt>
    <trkpt lat="43.246769" lon="-1.432302">
      <ele>394</ele>
      <time>2025-12-18T09:15:39.000Z</time>
    </trkpt>
    <trkpt lat="43.246994" lon="-1.432303">
      <ele>397</ele>
      <time>2025-12-18T09:16:01.000Z</time>
    </trkpt>
    <trkpt lat="43.247234" lon="-1.432308">
      <ele>396</ele>
      <time>2025-12-18T09:16:28.000Z</time>
    </trkpt>
    <trkpt lat="43.247026" lon="-1.432169">
      <ele>398</ele>
      <time>2025-12-18T09:16:54.000Z</time>
    </trkpt>
    <trkpt lat="43.246815" lon="-1.432041">
      <ele>402</ele>
      <time>2025-12-18T09:17:19.000Z</time>
    </trkpt>
    <trkpt lat="43.246598" lon="-1.431936">
      <ele>405</ele>
      <time>2025-12-18T09:17:43.000Z</time>
    </trkpt>
    <trkpt lat="43.246753" lon="-1.431701">
      <ele>414</ele>
      <time>2025-12-18T09:18:47.000Z</time>
    </trkpt>
    <trkpt lat="43.246977" lon="-1.43164">
      <ele>418</ele>
      <time>2025-12-18T09:19:10.000Z</time>
    </trkpt>
    <trkpt lat="43.247131" lon="-1.431401">
      <ele>420</ele>
      <time>2025-12-18T09:19:35.000Z</time>
    </trkpt>
    <trkpt lat="43.247221" lon="-1.431114">
      <ele>419</ele>
      <time>2025-12-18T09:20:01.000Z</time>
    </trkpt>
    <trkpt lat="43.247392" lon="-1.430876">
      <ele>422</ele>
      <time>2025-12-18T09:20:26.000Z</time>
    </trkpt>
    <trkpt lat="43.247533" lon="-1.430634">
      <ele>427</ele>
      <time>2025-12-18T09:20:54.000Z</time>
    </trkpt>
    <trkpt lat="43.247732" lon="-1.430481">
      <ele>432</ele>
      <time>2025-12-18T09:21:16.000Z</time>
    </trkpt>
    <trkpt lat="43.247967" lon="-1.430511">
      <ele>433</ele>
      <time>2025-12-18T09:21:40.000Z</time>
    </trkpt>
    <trkpt lat="43.248169" lon="-1.430667">
      <ele>435</ele>
      <time>2025-12-18T09:22:06.000Z</time>
    </trkpt>
    <trkpt lat="43.248379" lon="-1.430803">
      <ele>436</ele>
      <time>2025-12-18T09:22:27.000Z</time>
    </trkpt>
    <trkpt lat="43.2486" lon="-1.43088">
      <ele>436</ele>
      <time>2025-12-18T09:22:51.000Z</time>
    </trkpt>
    <trkpt lat="43.248831" lon="-1.430868">
      <ele>440</ele>
      <time>2025-12-18T09:23:15.000Z</time>
    </trkpt>
    <trkpt lat="43.249049" lon="-1.43076">
      <ele>441</ele>
      <time>2025-12-18T09:23:37.000Z</time>
    </trkpt>
    <trkpt lat="43.24924" lon="-1.430595">
      <ele>444</ele>
      <time>2025-12-18T09:23:59.000Z</time>
    </trkpt>
    <trkpt lat="43.249375" lon="-1.430344">
      <ele>445</ele>
      <time>2025-12-18T09:24:21.000Z</time>
    </trkpt>
    <trkpt lat="43.24946" lon="-1.430048">
      <ele>445</ele>
      <time>2025-12-18T09:24:42.000Z</time>
    </trkpt>
    <trkpt lat="43.249293" lon="-1.429837">
      <ele>450</ele>
      <time>2025-12-18T09:26:49.000Z</time>
    </trkpt>
    <trkpt lat="43.249068" lon="-1.429893">
      <ele>453</ele>
      <time>2025-12-18T09:27:17.000Z</time>
    </trkpt>
    <trkpt lat="43.248865" lon="-1.429742">
      <ele>454</ele>
      <time>2025-12-18T09:27:39.000Z</time>
    </trkpt>
    <trkpt lat="43.248652" lon="-1.429623">
      <ele>454</ele>
      <time>2025-12-18T09:28:00.000Z</time>
    </trkpt>
    <trkpt lat="43.248449" lon="-1.429485">
      <ele>453</ele>
      <time>2025-12-18T09:28:21.000Z</time>
    </trkpt>
    <trkpt lat="43.248234" lon="-1.429369">
      <ele>456</ele>
      <time>2025-12-18T09:28:42.000Z</time>
    </trkpt>
    <trkpt lat="43.248046" lon="-1.429192">
      <ele>461</ele>
      <time>2025-12-18T09:29:10.000Z</time>
    </trkpt>
    <trkpt lat="43.247854" lon="-1.429027">
      <ele>467</ele>
      <time>2025-12-18T09:29:45.000Z</time>
    </trkpt>
    <trkpt lat="43.247647" lon="-1.428884">
      <ele>476</ele>
      <time>2025-12-18T09:30:20.000Z</time>
    </trkpt>
    <trkpt lat="43.247446" lon="-1.428733">
      <ele>483</ele>
      <time>2025-12-18T09:30:56.000Z</time>
    </trkpt>
    <trkpt lat="43.247246" lon="-1.428583">
      <ele>489</ele>
      <time>2025-12-18T09:31:34.000Z</time>
    </trkpt>
    <trkpt lat="43.247038" lon="-1.428706">
      <ele>498</ele>
      <time>2025-12-18T09:32:17.000Z</time>
    </trkpt>
    <trkpt lat="43.246812" lon="-1.42873">
      <ele>508</ele>
      <time>2025-12-18T09:33:04.000Z</time>
    </trkpt>
    <trkpt lat="43.246591" lon="-1.428659">
      <ele>519</ele>
      <time>2025-12-18T09:34:04.000Z</time>
    </trkpt>
    <trkpt lat="43.246367" lon="-1.428613">
      <ele>533</ele>
      <time>2025-12-18T09:35:03.000Z</time>
    </trkpt>
    <trkpt lat="43.246143" lon="-1.42855">
      <ele>542</ele>
      <time>2025-12-18T09:39:11.000Z</time>
    </trkpt>
    <trkpt lat="43.245918" lon="-1.428584">
      <ele>551</ele>
      <time>2025-12-18T09:40:07.000Z</time>
    </trkpt>
    <trkpt lat="43.245688" lon="-1.428603">
      <ele>558</ele>
      <time>2025-12-18T09:41:00.000Z</time>
    </trkpt>
    <trkpt lat="43.245708" lon="-1.428293">
      <ele>565</ele>
      <time>2025-12-18T09:41:50.000Z</time>
    </trkpt>
    <trkpt lat="43.245503" lon="-1.42816">
      <ele>572</ele>
      <time>2025-12-18T09:42:33.000Z</time>
    </trkpt>
    <trkpt lat="43.245296" lon="-1.428041">
      <ele>577</ele>
      <time>2025-12-18T09:43:06.000Z</time>
    </trkpt>
    <trkpt lat="43.245095" lon="-1.427892">
      <ele>583</ele>
      <time>2025-12-18T09:44:02.000Z</time>
    </trkpt>
    <trkpt lat="43.244898" lon="-1.427743">
      <ele>589</ele>
      <time>2025-12-18T09:44:40.000Z</time>
    </trkpt>
    <trkpt lat="43.244669" lon="-1.427742">
      <ele>595</ele>
      <time>2025-12-18T09:45:17.000Z</time>
    </trkpt>
    <trkpt lat="43.244512" lon="-1.427968">
      <ele>599</ele>
      <time>2025-12-18T09:45:47.000Z</time>
    </trkpt>
    <trkpt lat="43.244291" lon="-1.428065">
      <ele>600</ele>
      <time>2025-12-18T09:46:23.000Z</time>
    </trkpt>
    <trkpt lat="43.24407" lon="-1.427979">
      <ele>604</ele>
      <time>2025-12-18T09:46:51.000Z</time>
    </trkpt>
    <trkpt lat="43.243861" lon="-1.427853">
      <ele>607</ele>
      <time>2025-12-18T09:47:24.000Z</time>
    </trkpt>
    <trkpt lat="43.24372" lon="-1.427611">
      <ele>611</ele>
      <time>2025-12-18T09:47:54.000Z</time>
    </trkpt>
    <trkpt lat="43.243507" lon="-1.427499">
      <ele>615</ele>
      <time>2025-12-18T09:48:27.000Z</time>
    </trkpt>
    <trkpt lat="43.243337" lon="-1.427286">
      <ele>618</ele>
      <time>2025-12-18T09:48:56.000Z</time>
    </trkpt>
    <trkpt lat="43.243169" lon="-1.427078">
      <ele>626</ele>
      <time>2025-12-18T09:49:33.000Z</time>
    </trkpt>
    <trkpt lat="43.242976" lon="-1.426915">
      <ele>627</ele>
      <time>2025-12-18T09:50:07.000Z</time>
    </trkpt>
    <trkpt lat="43.242753" lon="-1.426826">
      <ele>631</ele>
      <time>2025-12-18T09:50:34.000Z</time>
    </trkpt>
    <trkpt lat="43.242551" lon="-1.426686">
      <ele>640</ele>
      <time>2025-12-18T09:52:45.000Z</time>
    </trkpt>
    <trkpt lat="43.242523" lon="-1.426375">
      <ele>648</ele>
      <time>2025-12-18T09:53:37.000Z</time>
    </trkpt>
    <trkpt lat="43.242299" lon="-1.426416">
      <ele>659</ele>
      <time>2025-12-18T09:54:53.000Z</time>
    </trkpt>
    <trkpt lat="43.242092" lon="-1.426545">
      <ele>666</ele>
      <time>2025-12-18T09:55:36.000Z</time>
    </trkpt>
    <trkpt lat="43.24187" lon="-1.426596">
      <ele>674</ele>
      <time>2025-12-18T09:58:15.000Z</time>
    </trkpt>
    <trkpt lat="43.241684" lon="-1.426775">
      <ele>679</ele>
      <time>2025-12-18T09:58:56.000Z</time>
    </trkpt>
    <trkpt lat="43.241475" lon="-1.426906">
      <ele>682</ele>
      <time>2025-12-18T09:59:23.000Z</time>
    </trkpt>
    <trkpt lat="43.241287" lon="-1.426737">
      <ele>694</ele>
      <time>2025-12-18T10:01:04.000Z</time>
    </trkpt>
    <trkpt lat="43.241219" lon="-1.42644">
      <ele>704</ele>
      <time>2025-12-18T10:02:23.000Z</time>
    </trkpt>
    <trkpt lat="43.241045" lon="-1.42624">
      <ele>716</ele>
      <time>2025-12-18T10:03:35.000Z</time>
    </trkpt>
    <trkpt lat="43.241076" lon="-1.425934">
      <ele>724</ele>
      <time>2025-12-18T10:05:20.000Z</time>
    </trkpt>
    <trkpt lat="43.241039" lon="-1.426243">
      <ele>717</ele>
      <time>2025-12-18T10:06:54.000Z</time>
    </trkpt>
    <trkpt lat="43.240839" lon="-1.426395">
      <ele>711</ele>
      <time>2025-12-18T10:07:44.000Z</time>
    </trkpt>
    <trkpt lat="43.240623" lon="-1.426294">
      <ele>707</ele>
      <time>2025-12-18T10:08:08.000Z</time>
    </trkpt>
    <trkpt lat="43.240428" lon="-1.42614">
      <ele>703</ele>
      <time>2025-12-18T10:08:34.000Z</time>
    </trkpt>
    <trkpt lat="43.240211" lon="-1.426037">
      <ele>698</ele>
      <time>2025-12-18T10:09:03.000Z</time>
    </trkpt>
    <trkpt lat="43.239985" lon="-1.426056">
      <ele>691</ele>
      <time>2025-12-18T10:09:34.000Z</time>
    </trkpt>
    <trkpt lat="43.239761" lon="-1.425986">
      <ele>680</ele>
      <time>2025-12-18T10:10:20.000Z</time>
    </trkpt>
    <trkpt lat="43.239733" lon="-1.42567">
      <ele>662</ele>
      <time>2025-12-18T10:12:12.000Z</time>
    </trkpt>
    <trkpt lat="43.239874" lon="-1.425428">
      <ele>655</ele>
      <time>2025-12-18T10:13:02.000Z</time>
    </trkpt>
    <trkpt lat="43.239996" lon="-1.425165">
      <ele>644</ele>
      <time>2025-12-18T10:13:43.000Z</time>
    </trkpt>
    <trkpt lat="43.240139" lon="-1.424926">
      <ele>635</ele>
      <time>2025-12-18T10:14:23.000Z</time>
    </trkpt>
    <trkpt lat="43.240318" lon="-1.424732">
      <ele>627</ele>
      <time>2025-12-18T10:14:59.000Z</time>
    </trkpt>
    <trkpt lat="43.240444" lon="-1.424464">
      <ele>622</ele>
      <time>2025-12-18T10:15:25.000Z</time>
    </trkpt>
    <trkpt lat="43.240583" lon="-1.424205">
      <ele>616</ele>
      <time>2025-12-18T10:17:29.000Z</time>
    </trkpt>
    <trkpt lat="43.240746" lon="-1.423978">
      <ele>611</ele>
      <time>2025-12-18T10:17:52.000Z</time>
    </trkpt>
    <trkpt lat="43.240818" lon="-1.423683">
      <ele>605</ele>
      <time>2025-12-18T10:18:16.000Z</time>
    </trkpt>
    <trkpt lat="43.24098" lon="-1.423467">
      <ele>598</ele>
      <time>2025-12-18T10:18:46.000Z</time>
    </trkpt>
    <trkpt lat="43.241167" lon="-1.423293">
      <ele>591</ele>
      <time>2025-12-18T10:19:16.000Z</time>
    </trkpt>
    <trkpt lat="43.241336" lon="-1.423086">
      <ele>582</ele>
      <time>2025-12-18T10:19:54.000Z</time>
    </trkpt>
    <trkpt lat="43.241464" lon="-1.422819">
      <ele>579</ele>
      <time>2025-12-18T10:20:28.000Z</time>
    </trkpt>
    <trkpt lat="43.241628" lon="-1.422604">
      <ele>573</ele>
      <time>2025-12-18T10:21:50.000Z</time>
    </trkpt>
    <trkpt lat="43.241788" lon="-1.422385">
      <ele>564</ele>
      <time>2025-12-18T10:22:41.000Z</time>
    </trkpt>
    <trkpt lat="43.241908" lon="-1.422119">
      <ele>549</ele>
      <time>2025-12-18T10:23:56.000Z</time>
    </trkpt>
    <trkpt lat="43.242085" lon="-1.421914">
      <ele>538</ele>
      <time>2025-12-18T10:24:58.000Z</time>
    </trkpt>
    <trkpt lat="43.241968" lon="-1.421647">
      <ele>525</ele>
      <time>2025-12-18T10:26:01.000Z</time>
    </trkpt>
    <trkpt lat="43.242043" lon="-1.421357">
      <ele>513</ele>
      <time>2025-12-18T10:27:04.000Z</time>
    </trkpt>
    <trkpt lat="43.241961" lon="-1.421067">
      <ele>501</ele>
      <time>2025-12-18T10:27:51.000Z</time>
    </trkpt>
    <trkpt lat="43.241984" lon="-1.420758">
      <ele>493</ele>
      <time>2025-12-18T10:28:32.000Z</time>
    </trkpt>
    <trkpt lat="43.242182" lon="-1.420597">
      <ele>481</ele>
      <time>2025-12-18T10:32:32.000Z</time>
    </trkpt>
    <trkpt lat="43.242407" lon="-1.420604">
      <ele>482</ele>
      <time>2025-12-18T10:32:56.000Z</time>
    </trkpt>
    <trkpt lat="43.242613" lon="-1.420729">
      <ele>474</ele>
      <time>2025-12-18T10:33:20.000Z</time>
    </trkpt>
    <trkpt lat="43.242825" lon="-1.420841">
      <ele>472</ele>
      <time>2025-12-18T10:34:05.000Z</time>
    </trkpt>
    <trkpt lat="43.243059" lon="-1.420887">
      <ele>473</ele>
      <time>2025-12-18T10:34:41.000Z</time>
    </trkpt>
    <trkpt lat="43.243286" lon="-1.420971">
      <ele>474</ele>
      <time>2025-12-18T10:35:05.000Z</time>
    </trkpt>
    <trkpt lat="43.243502" lon="-1.421092">
      <ele>470</ele>
      <time>2025-12-18T10:35:26.000Z</time>
    </trkpt>
    <trkpt lat="43.243673" lon="-1.421303">
      <ele>468</ele>
      <time>2025-12-18T10:35:49.000Z</time>
    </trkpt>
    <trkpt lat="43.243799" lon="-1.421565">
      <ele>469</ele>
      <time>2025-12-18T10:36:10.000Z</time>
    </trkpt>
    <trkpt lat="43.243954" lon="-1.421804">
      <ele>466</ele>
      <time>2025-12-18T10:36:43.000Z</time>
    </trkpt>
    <trkpt lat="43.244182" lon="-1.421885">
      <ele>464</ele>
      <time>2025-12-18T10:37:07.000Z</time>
    </trkpt>
    <trkpt lat="43.244374" lon="-1.422067">
      <ele>462</ele>
      <time>2025-12-18T10:37:32.000Z</time>
    </trkpt>
    <trkpt lat="43.244429" lon="-1.422373">
      <ele>467</ele>
      <time>2025-12-18T10:37:56.000Z</time>
    </trkpt>
    <trkpt lat="43.24453" lon="-1.422658">
      <ele>464</ele>
      <time>2025-12-18T10:38:30.000Z</time>
    </trkpt>
    <trkpt lat="43.244649" lon="-1.422922">
      <ele>462</ele>
      <time>2025-12-18T10:38:57.000Z</time>
    </trkpt>
    <trkpt lat="43.244823" lon="-1.423124">
      <ele>459</ele>
      <time>2025-12-18T10:39:29.000Z</time>
    </trkpt>
    <trkpt lat="43.244936" lon="-1.423402">
      <ele>455</ele>
      <time>2025-12-18T10:40:04.000Z</time>
    </trkpt>
    <trkpt lat="43.245155" lon="-1.423317">
      <ele>450</ele>
      <time>2025-12-18T10:41:03.000Z</time>
    </trkpt>
    <trkpt lat="43.245236" lon="-1.423027">
      <ele>441</ele>
      <time>2025-12-18T10:41:41.000Z</time>
    </trkpt>
    <trkpt lat="43.245329" lon="-1.422742">
      <ele>438</ele>
      <time>2025-12-18T10:42:12.000Z</time>
    </trkpt>
    <trkpt lat="43.245518" lon="-1.422571">
      <ele>425</ele>
      <time>2025-12-18T10:42:54.000Z</time>
    </trkpt>
    <trkpt lat="43.245567" lon="-1.422269">
      <ele>417</ele>
      <time>2025-12-18T10:43:46.000Z</time>
    </trkpt>
    <trkpt lat="43.245731" lon="-1.422049">
      <ele>405</ele>
      <time>2025-12-18T10:44:44.000Z</time>
    </trkpt>
    <trkpt lat="43.245819" lon="-1.42176">
      <ele>391</ele>
      <time>2025-12-18T10:45:53.000Z</time>
    </trkpt>
    <trkpt lat="43.246001" lon="-1.421575">
      <ele>384</ele>
      <time>2025-12-18T10:46:34.000Z</time>
    </trkpt>
    <trkpt lat="43.246175" lon="-1.42138">
      <ele>375</ele>
      <time>2025-12-18T10:47:13.000Z</time>
    </trkpt>
    <trkpt lat="43.246376" lon="-1.421211">
      <ele>366</ele>
      <time>2025-12-18T10:47:39.000Z</time>
    </trkpt>
    <trkpt lat="43.246604" lon="-1.421208">
      <ele>365</ele>
      <time>2025-12-18T10:48:01.000Z</time>
    </trkpt>
    <trkpt lat="43.246829" lon="-1.421192">
      <ele>359</ele>
      <time>2025-12-18T10:48:41.000Z</time>
    </trkpt>
    <trkpt lat="43.247056" lon="-1.421154">
      <ele>353</ele>
      <time>2025-12-18T10:49:12.000Z</time>
    </trkpt>
    <trkpt lat="43.247288" lon="-1.421144">
      <ele>351</ele>
      <time>2025-12-18T10:49:36.000Z</time>
    </trkpt>
    <trkpt lat="43.247529" lon="-1.421166">
      <ele>349</ele>
      <time>2025-12-18T10:50:01.000Z</time>
    </trkpt>
    <trkpt lat="43.247755" lon="-1.421134">
      <ele>343</ele>
      <time>2025-12-18T10:50:26.000Z</time>
    </trkpt>
    <trkpt lat="43.247981" lon="-1.421129">
      <ele>337</ele>
      <time>2025-12-18T10:50:53.000Z</time>
    </trkpt>
    <trkpt lat="43.248205" lon="-1.421085">
      <ele>337</ele>
      <time>2025-12-18T10:51:32.000Z</time>
    </trkpt>
    <trkpt lat="43.248413" lon="-1.420953">
      <ele>333</ele>
      <time>2025-12-18T10:52:03.000Z</time>
    </trkpt>
    <trkpt lat="43.248416" lon="-1.420637">
      <ele>316</ele>
      <time>2025-12-18T10:53:06.000Z</time>
    </trkpt>
    <trkpt lat="43.248532" lon="-1.420373">
      <ele>305</ele>
      <time>2025-12-18T10:53:44.000Z</time>
    </trkpt>
    <trkpt lat="43.248755" lon="-1.420317">
      <ele>302</ele>
      <time>2025-12-18T10:54:08.000Z</time>
    </trkpt>
    <trkpt lat="43.248968" lon="-1.420183">
      <ele>294</ele>
      <time>2025-12-18T10:54:42.000Z</time>
    </trkpt>
    <trkpt lat="43.249184" lon="-1.420083">
      <ele>288</ele>
      <time>2025-12-18T10:55:10.000Z</time>
    </trkpt>
    <trkpt lat="43.249402" lon="-1.419968">
      <ele>280</ele>
      <time>2025-12-18T10:55:43.000Z</time>
    </trkpt>
    <trkpt lat="43.24963" lon="-1.419996">
      <ele>280</ele>
      <time>2025-12-18T10:56:06.000Z</time>
    </trkpt>
    <trkpt lat="43.249843" lon="-1.420123">
      <ele>276</ele>
      <time>2025-12-18T10:56:30.000Z</time>
    </trkpt>
    <trkpt lat="43.250076" lon="-1.420091">
      <ele>275</ele>
      <time>2025-12-18T10:56:55.000Z</time>
    </trkpt>
    <trkpt lat="43.250304" lon="-1.420033">
      <ele>273</ele>
      <time>2025-12-18T10:57:15.000Z</time>
    </trkpt>
    <trkpt lat="43.250533" lon="-1.420058">
      <ele>271</ele>
      <time>2025-12-18T10:58:48.000Z</time>
    </trkpt>
    <trkpt lat="43.250683" lon="-1.419827">
      <ele>261</ele>
      <time>2025-12-18T11:00:48.000Z</time>
    </trkpt>
    <trkpt lat="43.250762" lon="-1.419531">
      <ele>255</ele>
      <time>2025-12-18T11:01:18.000Z</time>
    </trkpt>
    <trkpt lat="43.25089" lon="-1.41926">
      <ele>251</ele>
      <time>2025-12-18T11:01:43.000Z</time>
    </trkpt>
    <trkpt lat="43.250971" lon="-1.418969">
      <ele>251</ele>
      <time>2025-12-18T11:02:06.000Z</time>
    </trkpt>
    <trkpt lat="43.251006" lon="-1.418662">
      <ele>249</ele>
      <time>2025-12-18T11:03:14.000Z</time>
    </trkpt>
    <trkpt lat="43.250984" lon="-1.418346">
      <ele>247</ele>
      <time>2025-12-18T11:05:37.000Z</time>
    </trkpt>
    <trkpt lat="43.250772" lon="-1.418231">
      <ele>249</ele>
      <time>2025-12-18T11:07:07.000Z</time>
    </trkpt>
    <trkpt lat="43.250762" lon="-1.417914">
      <ele>252</ele>
      <time>2025-12-18T11:08:02.000Z</time>
    </trkpt>
    <trkpt lat="43.250705" lon="-1.417613">
      <ele>248</ele>
      <time>2025-12-18T11:08:34.000Z</time>
    </trkpt>
    <trkpt lat="43.250664" lon="-1.417301">
      <ele>249</ele>
      <time>2025-12-18T11:09:03.000Z</time>
    </trkpt>
    <trkpt lat="43.250651" lon="-1.416988">
      <ele>250</ele>
      <time>2025-12-18T11:09:36.000Z</time>
    </trkpt>
    <trkpt lat="43.250671" lon="-1.416674">
      <ele>255</ele>
      <time>2025-12-18T11:10:01.000Z</time>
    </trkpt>
    <trkpt lat="43.250668" lon="-1.416366">
      <ele>254</ele>
      <time>2025-12-18T11:10:24.000Z</time>
    </trkpt>
    <trkpt lat="43.250697" lon="-1.41606">
      <ele>254</ele>
      <time>2025-12-18T11:10:53.000Z</time>
    </trkpt>
    <trkpt lat="43.250599" lon="-1.415774">
      <ele>258</ele>
      <time>2025-12-18T11:11:22.000Z</time>
    </trkpt>
    <trkpt lat="43.250684" lon="-1.415487">
      <ele>260</ele>
      <time>2025-12-18T11:11:51.000Z</time>
    </trkpt>
    <trkpt lat="43.250701" lon="-1.415171">
      <ele>262</ele>
      <time>2025-12-18T11:12:21.000Z</time>
    </trkpt>
    <trkpt lat="43.250796" lon="-1.414879">
      <ele>261</ele>
      <time>2025-12-18T11:12:47.000Z</time>
    </trkpt>
    <trkpt lat="43.250886" lon="-1.414593">
      <ele>259</ele>
      <time>2025-12-18T11:13:12.000Z</time>
    </trkpt>
    <trkpt lat="43.250861" lon="-1.414273">
      <ele>258</ele>
      <time>2025-12-18T11:13:35.000Z</time>
    </trkpt>
    <trkpt lat="43.250996" lon="-1.414023">
      <ele>260</ele>
      <time>2025-12-18T11:14:11.000Z</time>
    </trkpt>
    <trkpt lat="43.251045" lon="-1.413718">
      <ele>259</ele>
      <time>2025-12-18T11:14:34.000Z</time>
    </trkpt>
    <trkpt lat="43.251012" lon="-1.413411">
      <ele>258</ele>
      <time>2025-12-18T11:14:59.000Z</time>
    </trkpt>
    <trkpt lat="43.251045" lon="-1.413106">
      <ele>256</ele>
      <time>2025-12-18T11:15:26.000Z</time>
    </trkpt>
    <trkpt lat="43.251083" lon="-1.412798">
      <ele>253</ele>
      <time>2025-12-18T11:15:52.000Z</time>
    </trkpt>
    <trkpt lat="43.251147" lon="-1.412503">
      <ele>252</ele>
      <time>2025-12-18T11:16:22.000Z</time>
    </trkpt>
    <trkpt lat="43.251226" lon="-1.412212">
      <ele>250</ele>
      <time>2025-12-18T11:16:46.000Z</time>
    </trkpt>
    <trkpt lat="43.251367" lon="-1.411959">
      <ele>246</ele>
      <time>2025-12-18T11:17:19.000Z</time>
    </trkpt>
    <trkpt lat="43.251425" lon="-1.411655">
      <ele>247</ele>
      <time>2025-12-18T11:17:44.000Z</time>
    </trkpt>
    <trkpt lat="43.251602" lon="-1.411461">
      <ele>245</ele>
      <time>2025-12-18T11:18:09.000Z</time>
    </trkpt>
    <trkpt lat="43.25174" lon="-1.41121">
      <ele>238</ele>
      <time>2025-12-18T11:18:48.000Z</time>
    </trkpt>
    <trkpt lat="43.251838" lon="-1.410922">
      <ele>233</ele>
      <time>2025-12-18T11:20:32.000Z</time>
    </trkpt>
    <trkpt lat="43.251987" lon="-1.41067">
      <ele>231</ele>
      <time>2025-12-18T11:20:57.000Z</time>
    </trkpt>
    <trkpt lat="43.252076" lon="-1.410386">
      <ele>232</ele>
      <time>2025-12-18T11:21:21.000Z</time>
    </trkpt>
    <trkpt lat="43.252179" lon="-1.410095">
      <ele>229</ele>
      <time>2025-12-18T11:21:44.000Z</time>
    </trkpt>
    <trkpt lat="43.252198" lon="-1.409784">
      <ele>229</ele>
      <time>2025-12-18T11:22:08.000Z</time>
    </trkpt>
    <trkpt lat="43.252318" lon="-1.409501">
      <ele>226</ele>
      <time>2025-12-18T11:22:32.000Z</time>
    </trkpt>
    <trkpt lat="43.252388" lon="-1.409195">
      <ele>224</ele>
      <time>2025-12-18T11:22:51.000Z</time>
    </trkpt>
    <trkpt lat="43.252478" lon="-1.408909">
      <ele>223</ele>
      <time>2025-12-18T11:23:12.000Z</time>
    </trkpt>
    <trkpt lat="43.252451" lon="-1.408598">
      <ele>225</ele>
      <time>2025-12-18T11:23:34.000Z</time>
    </trkpt>
    <trkpt lat="43.25249" lon="-1.408294">
      <ele>223</ele>
      <time>2025-12-18T11:23:54.000Z</time>
    </trkpt>
    <trkpt lat="43.252561" lon="-1.407986">
      <ele>222</ele>
      <time>2025-12-18T11:24:13.000Z</time>
    </trkpt>
    <trkpt lat="43.252565" lon="-1.40767">
      <ele>219</ele>
      <time>2025-12-18T11:24:33.000Z</time>
    </trkpt>
    <trkpt lat="43.252697" lon="-1.407409">
      <ele>218</ele>
      <time>2025-12-18T11:24:55.000Z</time>
    </trkpt>
    <trkpt lat="43.252891" lon="-1.407248">
      <ele>216</ele>
      <time>2025-12-18T11:25:30.000Z</time>
    </trkpt>
    <trkpt lat="43.253021" lon="-1.407503">
      <ele>222</ele>
      <time>2025-12-18T11:25:53.000Z</time>
    </trkpt>
    <trkpt lat="43.253063" lon="-1.407807">
      <ele>223</ele>
      <time>2025-12-18T11:26:17.000Z</time>
    </trkpt>
    <trkpt lat="43.253115" lon="-1.408123">
      <ele>223</ele>
      <time>2025-12-18T11:26:39.000Z</time>
    </trkpt>
    <trkpt lat="43.253161" lon="-1.408432">
      <ele>226</ele>
      <time>2025-12-18T11:27:00.000Z</time>
    </trkpt>
    <trkpt lat="43.253223" lon="-1.408737">
      <ele>228</ele>
      <time>2025-12-18T11:27:21.000Z</time>
    </trkpt>
    <trkpt lat="43.253224" lon="-1.409052">
      <ele>230</ele>
      <time>2025-12-18T11:27:42.000Z</time>
    </trkpt>
    <trkpt lat="43.253221" lon="-1.409368">
      <ele>233</ele>
      <time>2025-12-18T11:28:02.000Z</time>
    </trkpt>
    <trkpt lat="43.253175" lon="-1.409678">
      <ele>233</ele>
      <time>2025-12-18T11:28:26.000Z</time>
    </trkpt>
    <trkpt lat="43.253155" lon="-1.40999">
      <ele>235</ele>
      <time>2025-12-18T11:28:49.000Z</time>
    </trkpt>
    <trkpt lat="43.2531" lon="-1.410302">
      <ele>241</ele>
      <time>2025-12-18T11:29:10.000Z</time>
    </trkpt>
    <trkpt lat="43.253028" lon="-1.410601">
      <ele>244</ele>
      <time>2025-12-18T11:29:30.000Z</time>
    </trkpt>
    <trkpt lat="43.252975" lon="-1.4109">
      <ele>248</ele>
      <time>2025-12-18T11:29:53.000Z</time>
    </trkpt>
    <trkpt lat="43.25297" lon="-1.41121">
      <ele>250</ele>
      <time>2025-12-18T11:30:29.000Z</time>
    </trkpt>
    <trkpt lat="43.252902" lon="-1.411508">
      <ele>252</ele>
      <time>2025-12-18T11:30:54.000Z</time>
    </trkpt>
    <trkpt lat="43.252867" lon="-1.411815">
      <ele>256</ele>
      <time>2025-12-18T11:31:14.000Z</time>
    </trkpt>
    <trkpt lat="43.252824" lon="-1.41213">
      <ele>258</ele>
      <time>2025-12-18T11:31:35.000Z</time>
    </trkpt>
    <trkpt lat="43.252758" lon="-1.412426">
      <ele>258</ele>
      <time>2025-12-18T11:31:54.000Z</time>
    </trkpt>
    <trkpt lat="43.25272" lon="-1.412734">
      <ele>261</ele>
      <time>2025-12-18T11:32:13.000Z</time>
    </trkpt>
    <trkpt lat="43.252609" lon="-1.413025">
      <ele>265</ele>
      <time>2025-12-18T11:32:32.000Z</time>
    </trkpt>
    <trkpt lat="43.252473" lon="-1.413288">
      <ele>264</ele>
      <time>2025-12-18T11:32:52.000Z</time>
    </trkpt>
    <trkpt lat="43.252429" lon="-1.413614">
      <ele>265</ele>
      <time>2025-12-18T11:33:12.000Z</time>
    </trkpt>
    <trkpt lat="43.25244" lon="-1.413923">
      <ele>267</ele>
      <time>2025-12-18T11:33:30.000Z</time>
    </trkpt>
    <trkpt lat="43.252366" lon="-1.414215">
      <ele>268</ele>
      <time>2025-12-18T11:33:46.000Z</time>
    </trkpt>
    <trkpt lat="43.25227" lon="-1.4145">
      <ele>272</ele>
      <time>2025-12-18T11:34:04.000Z</time>
    </trkpt>
    <trkpt lat="43.252182" lon="-1.414783">
      <ele>277</ele>
      <time>2025-12-18T11:34:24.000Z</time>
    </trkpt>
    <trkpt lat="43.252155" lon="-1.415095">
      <ele>278</ele>
      <time>2025-12-18T11:34:47.000Z</time>
    </trkpt>
    <trkpt lat="43.2521" lon="-1.415396">
      <ele>277</ele>
      <time>2025-12-18T11:35:07.000Z</time>
    </trkpt>
    <trkpt lat="43.252039" lon="-1.415696">
      <ele>278</ele>
      <time>2025-12-18T11:35:26.000Z</time>
    </trkpt>
    <trkpt lat="43.251918" lon="-1.415957">
      <ele>280</ele>
      <time>2025-12-18T11:35:44.000Z</time>
    </trkpt>
    <trkpt lat="43.251857" lon="-1.416257">
      <ele>279</ele>
      <time>2025-12-18T11:36:01.000Z</time>
    </trkpt>
    <trkpt lat="43.251861" lon="-1.416575">
      <ele>282</ele>
      <time>2025-12-18T11:36:22.000Z</time>
    </trkpt>
    <trkpt lat="43.251812" lon="-1.41689">
      <ele>286</ele>
      <time>2025-12-18T11:36:43.000Z</time>
    </trkpt>
    <trkpt lat="43.251867" lon="-1.417201">
      <ele>284</ele>
      <time>2025-12-18T11:37:04.000Z</time>
    </trkpt>
    <trkpt lat="43.251918" lon="-1.417506">
      <ele>287</ele>
      <time>2025-12-18T11:37:22.000Z</time>
    </trkpt>
    <trkpt lat="43.251918" lon="-1.417815">
      <ele>290</ele>
      <time>2025-12-18T11:37:40.000Z</time>
    </trkpt>
    <trkpt lat="43.251927" lon="-1.418123">
      <ele>294</ele>
      <time>2025-12-18T11:37:58.000Z</time>
    </trkpt>
    <trkpt lat="43.251884" lon="-1.418451">
      <ele>290</ele>
      <time>2025-12-18T11:38:19.000Z</time>
    </trkpt>
    <trkpt lat="43.251915" lon="-1.418756">
      <ele>284</ele>
      <time>2025-12-18T11:38:42.000Z</time>
    </trkpt>
    <trkpt lat="43.251884" lon="-1.419073">
      <ele>290</ele>
      <time>2025-12-18T11:38:58.000Z</time>
    </trkpt>
    <trkpt lat="43.251921" lon="-1.419391">
      <ele>288</ele>
      <time>2025-12-18T11:39:18.000Z</time>
    </trkpt>
    <trkpt lat="43.25195" lon="-1.419711">
      <ele>291</ele>
      <time>2025-12-18T11:39:35.000Z</time>
    </trkpt>
    <trkpt lat="43.251928" lon="-1.420025">
      <ele>293</ele>
      <time>2025-12-18T11:39:56.000Z</time>
    </trkpt>
    <trkpt lat="43.251862" lon="-1.420329">
      <ele>297</ele>
      <time>2025-12-18T11:40:13.000Z</time>
    </trkpt>
    <trkpt lat="43.25181" lon="-1.420638">
      <ele>298</ele>
      <time>2025-12-18T11:40:33.000Z</time>
    </trkpt>
    <trkpt lat="43.251757" lon="-1.420956">
      <ele>297</ele>
      <time>2025-12-18T11:40:52.000Z</time>
    </trkpt>
    <trkpt lat="43.25163" lon="-1.421214">
      <ele>300</ele>
      <time>2025-12-18T11:41:09.000Z</time>
    </trkpt>
    <trkpt lat="43.251579" lon="-1.421523">
      <ele>302</ele>
      <time>2025-12-18T11:41:28.000Z</time>
    </trkpt>
    <trkpt lat="43.251647" lon="-1.421829">
      <ele>297</ele>
      <time>2025-12-18T11:41:48.000Z</time>
    </trkpt>
    <trkpt lat="43.251847" lon="-1.42198">
      <ele>293</ele>
      <time>2025-12-18T11:42:07.000Z</time>
    </trkpt>
    <trkpt lat="43.251999" lon="-1.422233">
      <ele>296</ele>
      <time>2025-12-18T11:42:31.000Z</time>
    </trkpt>
    <trkpt lat="43.251931" lon="-1.422538">
      <ele>294</ele>
      <time>2025-12-18T12:05:02.000Z</time>
    </trkpt>
    <trkpt lat="43.251726" lon="-1.422676">
      <ele>294</ele>
      <time>2025-12-18T12:05:22.000Z</time>
    </trkpt>
    <trkpt lat="43.251639" lon="-1.422963">
      <ele>291</ele>
      <time>2025-12-18T12:05:44.000Z</time>
    </trkpt>
    <trkpt lat="43.251571" lon="-1.423264">
      <ele>287</ele>
      <time>2025-12-18T12:06:05.000Z</time>
    </trkpt>
    <trkpt lat="43.251525" lon="-1.423572">
      <ele>289</ele>
      <time>2025-12-18T12:06:23.000Z</time>
    </trkpt>
    <trkpt lat="43.25158" lon="-1.423872">
      <ele>291</ele>
      <time>2025-12-18T12:06:43.000Z</time>
    </trkpt>
    <trkpt lat="43.251652" lon="-1.424175">
      <ele>292</ele>
      <time>2025-12-18T12:07:01.000Z</time>
    </trkpt>
    <trkpt lat="43.251621" lon="-1.424495">
      <ele>296</ele>
      <time>2025-12-18T12:07:19.000Z</time>
    </trkpt>
    <trkpt lat="43.251597" lon="-1.424805">
      <ele>293</ele>
      <time>2025-12-18T12:07:36.000Z</time>
    </trkpt>
    <trkpt lat="43.251561" lon="-1.425111">
      <ele>294</ele>
      <time>2025-12-18T12:07:56.000Z</time>
    </trkpt>
    <trkpt lat="43.251516" lon="-1.425419">
      <ele>294</ele>
      <time>2025-12-18T12:08:15.000Z</time>
    </trkpt>
    <trkpt lat="43.251458" lon="-1.425722">
      <ele>294</ele>
      <time>2025-12-18T12:08:36.000Z</time>
    </trkpt>
    <trkpt lat="43.251403" lon="-1.426037">
      <ele>294</ele>
      <time>2025-12-18T12:08:54.000Z</time>
    </trkpt>
    <trkpt lat="43.251422" lon="-1.426344">
      <ele>291</ele>
      <time>2025-12-18T12:09:12.000Z</time>
    </trkpt>
    <trkpt lat="43.251524" lon="-1.426634">
      <ele>290</ele>
      <time>2025-12-18T12:09:29.000Z</time>
    </trkpt>
    <trkpt lat="43.251615" lon="-1.426922">
      <ele>290</ele>
      <time>2025-12-18T12:09:45.000Z</time>
    </trkpt>
    <trkpt lat="43.251712" lon="-1.427212">
      <ele>291</ele>
      <time>2025-12-18T12:10:01.000Z</time>
    </trkpt>
    <trkpt lat="43.2518" lon="-1.427505">
      <ele>291</ele>
      <time>2025-12-18T12:10:18.000Z</time>
    </trkpt>
    <trkpt lat="43.251859" lon="-1.427804">
      <ele>290</ele>
      <time>2025-12-18T12:10:34.000Z</time>
    </trkpt>
    <trkpt lat="43.25193" lon="-1.428119">
      <ele>288</ele>
      <time>2025-12-18T12:10:52.000Z</time>
    </trkpt>
    <trkpt lat="43.251982" lon="-1.428444">
      <ele>290</ele>
      <time>2025-12-18T12:11:08.000Z</time>
    </trkpt>
    <trkpt lat="43.252016" lon="-1.428753">
      <ele>291</ele>
      <time>2025-12-18T12:11:26.000Z</time>
    </trkpt>
    <trkpt lat="43.252176" lon="-1.428989">
      <ele>288</ele>
      <time>2025-12-18T12:11:43.000Z</time>
    </trkpt>
    <trkpt lat="43.252287" lon="-1.429273">
      <ele>288</ele>
      <time>2025-12-18T12:12:00.000Z</time>
    </trkpt>
    <trkpt lat="43.252484" lon="-1.429447">
      <ele>292</ele>
      <time>2025-12-18T12:12:18.000Z</time>
    </trkpt>
    <trkpt lat="43.252686" lon="-1.429594">
      <ele>291</ele>
      <time>2025-12-18T12:12:35.000Z</time>
    </trkpt>
    <trkpt lat="43.252814" lon="-1.42985">
      <ele>292</ele>
      <time>2025-12-18T12:12:52.000Z</time>
    </trkpt>
    <trkpt lat="43.252868" lon="-1.43015">
      <ele>291</ele>
      <time>2025-12-18T12:13:08.000Z</time>
    </trkpt>
    <trkpt lat="43.252904" lon="-1.430459">
      <ele>293</ele>
      <time>2025-12-18T12:13:24.000Z</time>
    </trkpt>
    <trkpt lat="43.252854" lon="-1.430764">
      <ele>293</ele>
      <time>2025-12-18T12:13:42.000Z</time>
    </trkpt>
    <trkpt lat="43.252712" lon="-1.431007">
      <ele>292</ele>
      <time>2025-12-18T12:14:00.000Z</time>
    </trkpt>
    <trkpt lat="43.252556" lon="-1.431246">
      <ele>293</ele>
      <time>2025-12-18T12:14:18.000Z</time>
    </trkpt>
    <trkpt lat="43.252414" lon="-1.431494">
      <ele>293</ele>
      <time>2025-12-18T12:14:37.000Z</time>
    </trkpt>
    <trkpt lat="43.252275" lon="-1.43174">
      <ele>293</ele>
      <time>2025-12-18T12:14:54.000Z</time>
    </trkpt>
    <trkpt lat="43.252157" lon="-1.432006">
      <ele>294</ele>
      <time>2025-12-18T12:15:11.000Z</time>
    </trkpt>
    <trkpt lat="43.25204" lon="-1.432275">
      <ele>295</ele>
      <time>2025-12-18T12:15:28.000Z</time>
    </trkpt>
    <trkpt lat="43.251936" lon="-1.432552">
      <ele>295</ele>
      <time>2025-12-18T12:15:44.000Z</time>
    </trkpt>
    <trkpt lat="43.251765" lon="-1.432773">
      <ele>295</ele>
      <time>2025-12-18T12:16:03.000Z</time>
    </trkpt>
    <trkpt lat="43.251609" lon="-1.433004">
      <ele>295</ele>
      <time>2025-12-18T12:16:21.000Z</time>
    </trkpt>
    <trkpt lat="43.25142" lon="-1.433172">
      <ele>295</ele>
      <time>2025-12-18T12:16:39.000Z</time>
    </trkpt>
    <trkpt lat="43.251234" lon="-1.43335">
      <ele>297</ele>
      <time>2025-12-18T12:16:57.000Z</time>
    </trkpt>
    <trkpt lat="43.251073" lon="-1.433568">
      <ele>297</ele>
      <time>2025-12-18T12:17:16.000Z</time>
    </trkpt>
    <trkpt lat="43.250934" lon="-1.433827">
      <ele>297</ele>
      <time>2025-12-18T12:17:34.000Z</time>
    </trkpt>
    <trkpt lat="43.250731" lon="-1.433985">
      <ele>297</ele>
      <time>2025-12-18T12:17:52.000Z</time>
    </trkpt>
    <trkpt lat="43.250523" lon="-1.43414">
      <ele>297</ele>
      <time>2025-12-18T12:18:08.000Z</time>
    </trkpt>
    <trkpt lat="43.250358" lon="-1.434368">
      <ele>300</ele>
      <time>2025-12-18T12:18:25.000Z</time>
    </trkpt>
    <trkpt lat="43.250195" lon="-1.434601">
      <ele>295</ele>
      <time>2025-12-18T12:18:43.000Z</time>
    </trkpt>
    <trkpt lat="43.250026" lon="-1.434821">
      <ele>298</ele>
      <time>2025-12-18T12:19:00.000Z</time>
    </trkpt>
    <trkpt lat="43.249855" lon="-1.435044">
      <ele>299</ele>
      <time>2025-12-18T12:19:17.000Z</time>
    </trkpt>
    <trkpt lat="43.249655" lon="-1.435188">
      <ele>302</ele>
      <time>2025-12-18T12:19:33.000Z</time>
    </trkpt>
    <trkpt lat="43.249429" lon="-1.435279">
      <ele>305</ele>
      <time>2025-12-18T12:19:51.000Z</time>
    </trkpt>
    <trkpt lat="43.249204" lon="-1.435364">
      <ele>306</ele>
      <time>2025-12-18T12:20:08.000Z</time>
    </trkpt>
    <trkpt lat="43.248971" lon="-1.435421">
      <ele>307</ele>
      <time>2025-12-18T12:20:25.000Z</time>
    </trkpt>
    <trkpt lat="43.248738" lon="-1.435402">
      <ele>307</ele>
      <time>2025-12-18T12:20:44.000Z</time>
    </trkpt>
    <trkpt lat="43.248513" lon="-1.435461">
      <ele>308</ele>
      <time>2025-12-18T12:21:03.000Z</time>
    </trkpt>
    <trkpt lat="43.248308" lon="-1.435604">
      <ele>309</ele>
      <time>2025-12-18T12:21:23.000Z</time>
    </trkpt>
    <trkpt lat="43.248111" lon="-1.435768">
      <ele>313</ele>
      <time>2025-12-18T12:21:40.000Z</time>
    </trkpt>
    <trkpt lat="43.247922" lon="-1.435947">
      <ele>312</ele>
      <time>2025-12-18T12:21:57.000Z</time>
    </trkpt>
    <trkpt lat="43.247693" lon="-1.435916">
      <ele>311</ele>
      <time>2025-12-18T12:22:17.000Z</time>
    </trkpt>
    <trkpt lat="43.247473" lon="-1.435849">
      <ele>312</ele>
      <time>2025-12-18T12:22:30.000Z</time>
    </trkpt>
    <trkpt lat="43.247258" lon="-1.435949">
      <ele>312</ele>
      <time>2025-12-18T12:22:45.000Z</time>
    </trkpt>
    <trkpt lat="43.247061" lon="-1.436106">
      <ele>313</ele>
      <time>2025-12-18T12:23:02.000Z</time>
    </trkpt>
    <trkpt lat="43.246853" lon="-1.436245">
      <ele>312</ele>
      <time>2025-12-18T12:23:19.000Z</time>
    </trkpt>
    <trkpt lat="43.246648" lon="-1.436389">
      <ele>314</ele>
      <time>2025-12-18T12:23:36.000Z</time>
    </trkpt>
    <trkpt lat="43.24646" lon="-1.436559">
      <ele>314</ele>
      <time>2025-12-18T12:23:54.000Z</time>
    </trkpt>
    <trkpt lat="43.246244" lon="-1.436652">
      <ele>319</ele>
      <time>2025-12-18T12:24:13.000Z</time>
    </trkpt>
    <trkpt lat="43.246018" lon="-1.43668">
      <ele>318</ele>
      <time>2025-12-18T12:24:32.000Z</time>
    </trkpt>
    <trkpt lat="43.245791" lon="-1.436777">
      <ele>320</ele>
      <time>2025-12-18T12:24:51.000Z</time>
    </trkpt>
    <trkpt lat="43.245576" lon="-1.436899">
      <ele>322</ele>
      <time>2025-12-18T12:25:08.000Z</time>
    </trkpt>
    <trkpt lat="43.245362" lon="-1.437008">
      <ele>323</ele>
      <time>2025-12-18T12:25:25.000Z</time>
    </trkpt>
    <trkpt lat="43.245181" lon="-1.4372">
      <ele>324</ele>
      <time>2025-12-18T12:25:41.000Z</time>
    </trkpt>
    <trkpt lat="43.245011" lon="-1.437423">
      <ele>323</ele>
      <time>2025-12-18T12:25:58.000Z</time>
    </trkpt>
    <trkpt lat="43.244826" lon="-1.437626">
      <ele>321</ele>
      <time>2025-12-18T12:26:15.000Z</time>
    </trkpt>
    <trkpt lat="43.244659" lon="-1.437856">
      <ele>322</ele>
      <time>2025-12-18T12:26:32.000Z</time>
    </trkpt>
    <trkpt lat="43.244494" lon="-1.438079">
      <ele>323</ele>
      <time>2025-12-18T12:26:49.000Z</time>
    </trkpt>
    <trkpt lat="43.244315" lon="-1.438289">
      <ele>323</ele>
      <time>2025-12-18T12:27:07.000Z</time>
    </trkpt>
    <trkpt lat="43.244152" lon="-1.438505">
      <ele>325</ele>
      <time>2025-12-18T12:27:25.000Z</time>
    </trkpt>
    <trkpt lat="43.24399" lon="-1.438734">
      <ele>328</ele>
      <time>2025-12-18T12:27:44.000Z</time>
    </trkpt>
    <trkpt lat="43.243868" lon="-1.438998">
      <ele>328</ele>
      <time>2025-12-18T12:28:03.000Z</time>
    </trkpt>
    <trkpt lat="43.243705" lon="-1.439228">
      <ele>331</ele>
      <time>2025-12-18T12:28:22.000Z</time>
    </trkpt>
    <trkpt lat="43.243557" lon="-1.439466">
      <ele>331</ele>
      <time>2025-12-18T12:28:40.000Z</time>
    </trkpt>
    <trkpt lat="43.243431" lon="-1.439726">
      <ele>333</ele>
      <time>2025-12-18T12:28:59.000Z</time>
    </trkpt>
    <trkpt lat="43.243289" lon="-1.439978">
      <ele>334</ele>
      <time>2025-12-18T12:29:18.000Z</time>
    </trkpt>
    <trkpt lat="43.243113" lon="-1.440189">
      <ele>338</ele>
      <time>2025-12-18T12:29:35.000Z</time>
    </trkpt>
    <trkpt lat="43.242934" lon="-1.440387">
      <ele>337</ele>
      <time>2025-12-18T12:29:54.000Z</time>
    </trkpt>
    <trkpt lat="43.242727" lon="-1.440511">
      <ele>337</ele>
      <time>2025-12-18T12:30:11.000Z</time>
    </trkpt>
    <trkpt lat="43.242494" lon="-1.440577">
      <ele>338</ele>
      <time>2025-12-18T12:30:28.000Z</time>
    </trkpt>
    <trkpt lat="43.242269" lon="-1.440631">
      <ele>338</ele>
      <time>2025-12-18T12:30:44.000Z</time>
    </trkpt>
    <trkpt lat="43.242067" lon="-1.440779">
      <ele>337</ele>
      <time>2025-12-18T12:31:00.000Z</time>
    </trkpt>
    <trkpt lat="43.241867" lon="-1.440934">
      <ele>336</ele>
      <time>2025-12-18T12:31:16.000Z</time>
    </trkpt>
    <trkpt lat="43.241672" lon="-1.441122">
      <ele>340</ele>
      <time>2025-12-18T12:31:33.000Z</time>
    </trkpt>
    <trkpt lat="43.241447" lon="-1.441197">
      <ele>342</ele>
      <time>2025-12-18T12:31:52.000Z</time>
    </trkpt>
    <trkpt lat="43.241221" lon="-1.441122">
      <ele>348</ele>
      <time>2025-12-18T12:32:17.000Z</time>
    </trkpt>
    <trkpt lat="43.240993" lon="-1.441077">
      <ele>346</ele>
      <time>2025-12-18T12:32:42.000Z</time>
    </trkpt>
    <trkpt lat="43.240766" lon="-1.441027">
      <ele>350</ele>
      <time>2025-12-18T12:33:06.000Z</time>
    </trkpt>
    <trkpt lat="43.24059" lon="-1.441234">
      <ele>354</ele>
      <time>2025-12-18T12:33:31.000Z</time>
    </trkpt>
    <trkpt lat="43.240461" lon="-1.441493">
      <ele>352</ele>
      <time>2025-12-18T12:33:50.000Z</time>
    </trkpt>
    <trkpt lat="43.240297" lon="-1.441707">
      <ele>354</ele>
      <time>2025-12-18T12:34:08.000Z</time>
    </trkpt>
    <trkpt lat="43.240118" lon="-1.441909">
      <ele>356</ele>
      <time>2025-12-18T12:34:24.000Z</time>
    </trkpt>
    <trkpt lat="43.239958" lon="-1.442133">
      <ele>356</ele>
      <time>2025-12-18T12:34:44.000Z</time>
    </trkpt>
    <trkpt lat="43.239824" lon="-1.442385">
      <ele>356</ele>
      <time>2025-12-18T12:35:03.000Z</time>
    </trkpt>
    <trkpt lat="43.239681" lon="-1.442625">
      <ele>358</ele>
      <time>2025-12-18T12:35:20.000Z</time>
    </trkpt>
    <trkpt lat="43.239529" lon="-1.442853">
      <ele>358</ele>
      <time>2025-12-18T12:35:38.000Z</time>
    </trkpt>
    <trkpt lat="43.239567" lon="-1.442548">
      <ele>368</ele>
      <time>2025-12-18T12:36:34.000Z</time>
    </trkpt>
    <trkpt lat="43.23966" lon="-1.442263">
      <ele>372</ele>
      <time>2025-12-18T12:36:57.000Z</time>
    </trkpt>
    <trkpt lat="43.239726" lon="-1.441968">
      <ele>372</ele>
      <time>2025-12-18T12:37:19.000Z</time>
    </trkpt>
    <trkpt lat="43.239786" lon="-1.441669">
      <ele>374</ele>
      <time>2025-12-18T12:37:40.000Z</time>
    </trkpt>
    <trkpt lat="43.23988" lon="-1.441373">
      <ele>375</ele>
      <time>2025-12-18T12:37:59.000Z</time>
    </trkpt>
    <trkpt lat="43.239778" lon="-1.441087">
      <ele>376</ele>
      <time>2025-12-18T12:38:23.000Z</time>
    </trkpt>
    <trkpt lat="43.239565" lon="-1.44097">
      <ele>378</ele>
      <time>2025-12-18T12:38:43.000Z</time>
    </trkpt>
    <trkpt lat="43.239365" lon="-1.440829">
      <ele>378</ele>
      <time>2025-12-18T12:39:05.000Z</time>
    </trkpt>
    <trkpt lat="43.239139" lon="-1.440853">
      <ele>383</ele>
      <time>2025-12-18T12:39:29.000Z</time>
    </trkpt>
    <trkpt lat="43.238909" lon="-1.440854">
      <ele>386</ele>
      <time>2025-12-18T12:39:53.000Z</time>
    </trkpt>
    <trkpt lat="43.238684" lon="-1.440842">
      <ele>388</ele>
      <time>2025-12-18T12:40:16.000Z</time>
    </trkpt>
    <trkpt lat="43.238452" lon="-1.440866">
      <ele>392</ele>
      <time>2025-12-18T12:40:40.000Z</time>
    </trkpt>
    <trkpt lat="43.238234" lon="-1.44095">
      <ele>392</ele>
      <time>2025-12-18T12:41:04.000Z</time>
    </trkpt>
    <trkpt lat="43.238012" lon="-1.441013">
      <ele>397</ele>
      <time>2025-12-18T12:41:26.000Z</time>
    </trkpt>
    <trkpt lat="43.237781" lon="-1.441056">
      <ele>403</ele>
      <time>2025-12-18T12:41:47.000Z</time>
    </trkpt>
    <trkpt lat="43.237567" lon="-1.44119">
      <ele>403</ele>
      <time>2025-12-18T12:42:11.000Z</time>
    </trkpt>
    <trkpt lat="43.237381" lon="-1.441381">
      <ele>407</ele>
      <time>2025-12-18T12:42:32.000Z</time>
    </trkpt>
    <trkpt lat="43.237207" lon="-1.441588">
      <ele>410</ele>
      <time>2025-12-18T12:42:55.000Z</time>
    </trkpt>
    <trkpt lat="43.237015" lon="-1.441768">
      <ele>413</ele>
      <time>2025-12-18T12:43:16.000Z</time>
    </trkpt>
    <trkpt lat="43.236794" lon="-1.441864">
      <ele>418</ele>
      <time>2025-12-18T12:43:37.000Z</time>
    </trkpt>
    <trkpt lat="43.23659" lon="-1.442021">
      <ele>421</ele>
      <time>2025-12-18T12:43:58.000Z</time>
    </trkpt>
    <trkpt lat="43.236364" lon="-1.442134">
      <ele>425</ele>
      <time>2025-12-18T12:44:19.000Z</time>
    </trkpt>
    <trkpt lat="43.236133" lon="-1.442118">
      <ele>427</ele>
      <time>2025-12-18T12:44:38.000Z</time>
    </trkpt>
    <trkpt lat="43.235902" lon="-1.442077">
      <ele>428</ele>
      <time>2025-12-18T12:44:58.000Z</time>
    </trkpt>
    <trkpt lat="43.235679" lon="-1.442027">
      <ele>430</ele>
      <time>2025-12-18T12:45:17.000Z</time>
    </trkpt>
    <trkpt lat="43.235452" lon="-1.442024">
      <ele>435</ele>
      <time>2025-12-18T12:45:36.000Z</time>
    </trkpt>
    <trkpt lat="43.235225" lon="-1.441994">
      <ele>436</ele>
      <time>2025-12-18T12:45:56.000Z</time>
    </trkpt>
    <trkpt lat="43.234996" lon="-1.441996">
      <ele>437</ele>
      <time>2025-12-18T12:46:16.000Z</time>
    </trkpt>
    <trkpt lat="43.234765" lon="-1.441953">
      <ele>439</ele>
      <time>2025-12-18T12:46:36.000Z</time>
    </trkpt>
    <trkpt lat="43.234534" lon="-1.441911">
      <ele>442</ele>
      <time>2025-12-18T12:46:58.000Z</time>
    </trkpt>
    <trkpt lat="43.234306" lon="-1.441904">
      <ele>445</ele>
      <time>2025-12-18T12:47:20.000Z</time>
    </trkpt>
    <trkpt lat="43.234078" lon="-1.44188">
      <ele>447</ele>
      <time>2025-12-18T12:47:41.000Z</time>
    </trkpt>
    <trkpt lat="43.233845" lon="-1.441875">
      <ele>453</ele>
      <time>2025-12-18T12:48:00.000Z</time>
    </trkpt>
    <trkpt lat="43.233612" lon="-1.441898">
      <ele>457</ele>
      <time>2025-12-18T12:48:18.000Z</time>
    </trkpt>
    <trkpt lat="43.23339" lon="-1.441982">
      <ele>455</ele>
      <time>2025-12-18T12:48:41.000Z</time>
    </trkpt>
    <trkpt lat="43.233164" lon="-1.442073">
      <ele>455</ele>
      <time>2025-12-18T12:49:01.000Z</time>
    </trkpt>
    <trkpt lat="43.232993" lon="-1.442289">
      <ele>457</ele>
      <time>2025-12-18T12:49:23.000Z</time>
    </trkpt>
    <trkpt lat="43.232821" lon="-1.442492">
      <ele>459</ele>
      <time>2025-12-18T12:49:51.000Z</time>
    </trkpt>
    <trkpt lat="43.23261" lon="-1.44264">
      <ele>465</ele>
      <time>2025-12-18T12:50:13.000Z</time>
    </trkpt>
    <trkpt lat="43.232392" lon="-1.442733">
      <ele>467</ele>
      <time>2025-12-18T12:50:39.000Z</time>
    </trkpt>
    <trkpt lat="43.232179" lon="-1.442845">
      <ele>470</ele>
      <time>2025-12-18T12:51:00.000Z</time>
    </trkpt>
    <trkpt lat="43.23195" lon="-1.442837">
      <ele>476</ele>
      <time>2025-12-18T12:51:21.000Z</time>
    </trkpt>
    <trkpt lat="43.231716" lon="-1.442857">
      <ele>477</ele>
      <time>2025-12-18T12:51:44.000Z</time>
    </trkpt>
    <trkpt lat="43.231495" lon="-1.442796">
      <ele>477</ele>
      <time>2025-12-18T12:52:06.000Z</time>
    </trkpt>
    <trkpt lat="43.231273" lon="-1.442715">
      <ele>481</ele>
      <time>2025-12-18T12:52:28.000Z</time>
    </trkpt>
    <trkpt lat="43.231056" lon="-1.44263">
      <ele>487</ele>
      <time>2025-12-18T12:52:53.000Z</time>
    </trkpt>
    <trkpt lat="43.230837" lon="-1.442548">
      <ele>488</ele>
      <time>2025-12-18T12:53:15.000Z</time>
    </trkpt>
    <trkpt lat="43.230639" lon="-1.442394">
      <ele>493</ele>
      <time>2025-12-18T12:53:38.000Z</time>
    </trkpt>
    <trkpt lat="43.230455" lon="-1.442209">
      <ele>497</ele>
      <time>2025-12-18T12:54:01.000Z</time>
    </trkpt>
    <trkpt lat="43.230329" lon="-1.441951">
      <ele>503</ele>
      <time>2025-12-18T12:54:24.000Z</time>
    </trkpt>
    <trkpt lat="43.230183" lon="-1.44219">
      <ele>507</ele>
      <time>2025-12-18T12:54:50.000Z</time>
    </trkpt>
    <trkpt lat="43.230258" lon="-1.442491">
      <ele>509</ele>
      <time>2025-12-18T12:55:12.000Z</time>
    </trkpt>
    <trkpt lat="43.230284" lon="-1.442797">
      <ele>511</ele>
      <time>2025-12-18T12:55:33.000Z</time>
    </trkpt>
    <trkpt lat="43.230286" lon="-1.443107">
      <ele>515</ele>
      <time>2025-12-18T12:55:53.000Z</time>
    </trkpt>
    <trkpt lat="43.230208" lon="-1.443407">
      <ele>516</ele>
      <time>2025-12-18T12:56:13.000Z</time>
    </trkpt>
    <trkpt lat="43.230083" lon="-1.443673">
      <ele>518</ele>
      <time>2025-12-18T12:56:33.000Z</time>
    </trkpt>
    <trkpt lat="43.229914" lon="-1.443882">
      <ele>518</ele>
      <time>2025-12-18T12:56:52.000Z</time>
    </trkpt>
    <trkpt lat="43.22969" lon="-1.443975">
      <ele>524</ele>
      <time>2025-12-18T12:57:12.000Z</time>
    </trkpt>
    <trkpt lat="43.229459" lon="-1.444027">
      <ele>523</ele>
      <time>2025-12-18T12:57:33.000Z</time>
    </trkpt>
    <trkpt lat="43.229246" lon="-1.444166">
      <ele>526</ele>
      <time>2025-12-18T12:57:52.000Z</time>
    </trkpt>
    <trkpt lat="43.229039" lon="-1.444311">
      <ele>524</ele>
      <time>2025-12-18T12:58:11.000Z</time>
    </trkpt>
    <trkpt lat="43.22882" lon="-1.444423">
      <ele>521</ele>
      <time>2025-12-18T12:58:30.000Z</time>
    </trkpt>
    <trkpt lat="43.228586" lon="-1.444491">
      <ele>520</ele>
      <time>2025-12-18T12:58:47.000Z</time>
    </trkpt>
    <trkpt lat="43.228406" lon="-1.444686">
      <ele>521</ele>
      <time>2025-12-18T12:59:04.000Z</time>
    </trkpt>
    <trkpt lat="43.228205" lon="-1.444853">
      <ele>520</ele>
      <time>2025-12-18T12:59:22.000Z</time>
    </trkpt>
    <trkpt lat="43.22798" lon="-1.444877">
      <ele>519</ele>
      <time>2025-12-18T12:59:39.000Z</time>
    </trkpt>
    <trkpt lat="43.227751" lon="-1.444908">
      <ele>517</ele>
      <time>2025-12-18T12:59:56.000Z</time>
    </trkpt>
    <trkpt lat="43.227529" lon="-1.445009">
      <ele>516</ele>
      <time>2025-12-18T13:00:13.000Z</time>
    </trkpt>
    <trkpt lat="43.227314" lon="-1.445126">
      <ele>517</ele>
      <time>2025-12-18T13:00:30.000Z</time>
    </trkpt>
    <trkpt lat="43.227106" lon="-1.44526">
      <ele>518</ele>
      <time>2025-12-18T13:00:48.000Z</time>
    </trkpt>
    <trkpt lat="43.226893" lon="-1.445383">
      <ele>520</ele>
      <time>2025-12-18T13:01:05.000Z</time>
    </trkpt>
    <trkpt lat="43.226706" lon="-1.44556">
      <ele>518</ele>
      <time>2025-12-18T13:01:19.000Z</time>
    </trkpt>
    <trkpt lat="43.226527" lon="-1.445757">
      <ele>520</ele>
      <time>2025-12-18T13:01:36.000Z</time>
    </trkpt>
    <trkpt lat="43.226362" lon="-1.445973">
      <ele>522</ele>
      <time>2025-12-18T13:01:53.000Z</time>
    </trkpt>
    <trkpt lat="43.226202" lon="-1.446197">
      <ele>522</ele>
      <time>2025-12-18T13:02:10.000Z</time>
    </trkpt>
    <trkpt lat="43.226084" lon="-1.446474">
      <ele>524</ele>
      <time>2025-12-18T13:02:31.000Z</time>
    </trkpt>
    <trkpt lat="43.225937" lon="-1.446713">
      <ele>526</ele>
      <time>2025-12-18T13:02:49.000Z</time>
    </trkpt>
    <trkpt lat="43.225704" lon="-1.446655">
      <ele>532</ele>
      <time>2025-12-18T13:03:09.000Z</time>
    </trkpt>
    <trkpt lat="43.225514" lon="-1.446483">
      <ele>529</ele>
      <time>2025-12-18T13:03:27.000Z</time>
    </trkpt>
    <trkpt lat="43.225308" lon="-1.446328">
      <ele>530</ele>
      <time>2025-12-18T13:03:45.000Z</time>
    </trkpt>
    <trkpt lat="43.225089" lon="-1.446218">
      <ele>535</ele>
      <time>2025-12-18T13:04:03.000Z</time>
    </trkpt>
    <trkpt lat="43.224859" lon="-1.446221">
      <ele>539</ele>
      <time>2025-12-18T13:04:20.000Z</time>
    </trkpt>
    <trkpt lat="43.224634" lon="-1.446268">
      <ele>543</ele>
      <time>2025-12-18T13:04:43.000Z</time>
    </trkpt>
    <trkpt lat="43.224411" lon="-1.446218">
      <ele>545</ele>
      <time>2025-12-18T13:05:03.000Z</time>
    </trkpt>
    <trkpt lat="43.224195" lon="-1.44611">
      <ele>546</ele>
      <time>2025-12-18T13:05:23.000Z</time>
    </trkpt>
    <trkpt lat="43.223994" lon="-1.446268">
      <ele>550</ele>
      <time>2025-12-18T13:05:44.000Z</time>
    </trkpt>
    <trkpt lat="43.22412" lon="-1.446526">
      <ele>551</ele>
      <time>2025-12-18T13:06:04.000Z</time>
    </trkpt>
    <trkpt lat="43.224262" lon="-1.446778">
      <ele>551</ele>
      <time>2025-12-18T13:06:22.000Z</time>
    </trkpt>
    <trkpt lat="43.224299" lon="-1.44709">
      <ele>554</ele>
      <time>2025-12-18T13:06:41.000Z</time>
    </trkpt>
    <trkpt lat="43.224341" lon="-1.447408">
      <ele>555</ele>
      <time>2025-12-18T13:07:01.000Z</time>
    </trkpt>
    <trkpt lat="43.22418" lon="-1.447631">
      <ele>555</ele>
      <time>2025-12-18T13:07:21.000Z</time>
    </trkpt>
    <trkpt lat="43.223985" lon="-1.447789">
      <ele>558</ele>
      <time>2025-12-18T13:07:39.000Z</time>
    </trkpt>
    <trkpt lat="43.223787" lon="-1.447966">
      <ele>563</ele>
      <time>2025-12-18T13:07:58.000Z</time>
    </trkpt>
    <trkpt lat="43.223576" lon="-1.448079">
      <ele>571</ele>
      <time>2025-12-18T13:08:19.000Z</time>
    </trkpt>
    <trkpt lat="43.223349" lon="-1.448099">
      <ele>577</ele>
      <time>2025-12-18T13:08:43.000Z</time>
    </trkpt>
    <trkpt lat="43.223122" lon="-1.448138">
      <ele>577</ele>
      <time>2025-12-18T13:09:09.000Z</time>
    </trkpt>
    <trkpt lat="43.223087" lon="-1.448451">
      <ele>580</ele>
      <time>2025-12-18T13:09:32.000Z</time>
    </trkpt>
    <trkpt lat="43.223003" lon="-1.448746">
      <ele>584</ele>
      <time>2025-12-18T13:09:55.000Z</time>
    </trkpt>
    <trkpt lat="43.222815" lon="-1.448925">
      <ele>589</ele>
      <time>2025-12-18T13:10:15.000Z</time>
    </trkpt>
    <trkpt lat="43.22264" lon="-1.449127">
      <ele>592</ele>
      <time>2025-12-18T13:10:34.000Z</time>
    </trkpt>
    <trkpt lat="43.222497" lon="-1.449376">
      <ele>593</ele>
      <time>2025-12-18T13:10:55.000Z</time>
    </trkpt>
    <trkpt lat="43.222351" lon="-1.449631">
      <ele>598</ele>
      <time>2025-12-18T13:11:16.000Z</time>
    </trkpt>
    <trkpt lat="43.222166" lon="-1.449812">
      <ele>599</ele>
      <time>2025-12-18T13:11:34.000Z</time>
    </trkpt>
    <trkpt lat="43.222011" lon="-1.450056">
      <ele>602</ele>
      <time>2025-12-18T13:11:55.000Z</time>
    </trkpt>
    <trkpt lat="43.221812" lon="-1.450205">
      <ele>602</ele>
      <time>2025-12-18T13:12:16.000Z</time>
    </trkpt>
    <trkpt lat="43.221613" lon="-1.450355">
      <ele>605</ele>
      <time>2025-12-18T13:12:38.000Z</time>
    </trkpt>
    <trkpt lat="43.221393" lon="-1.450432">
      <ele>610</ele>
      <time>2025-12-18T13:13:01.000Z</time>
    </trkpt>
    <trkpt lat="43.22119" lon="-1.450565">
      <ele>613</ele>
      <time>2025-12-18T13:13:20.000Z</time>
    </trkpt>
    <trkpt lat="43.220991" lon="-1.450731">
      <ele>615</ele>
      <time>2025-12-18T13:13:39.000Z</time>
    </trkpt>
    <trkpt lat="43.220806" lon="-1.450916">
      <ele>617</ele>
      <time>2025-12-18T13:13:56.000Z</time>
    </trkpt>
    <trkpt lat="43.220614" lon="-1.45109">
      <ele>620</ele>
      <time>2025-12-18T13:14:16.000Z</time>
    </trkpt>
    <trkpt lat="43.220401" lon="-1.451198">
      <ele>623</ele>
      <time>2025-12-18T13:14:39.000Z</time>
    </trkpt>
    <trkpt lat="43.220186" lon="-1.451315">
      <ele>630</ele>
      <time>2025-12-18T13:15:00.000Z</time>
    </trkpt>
    <trkpt lat="43.21996" lon="-1.451322">
      <ele>637</ele>
      <time>2025-12-18T13:15:24.000Z</time>
    </trkpt>
    <trkpt lat="43.219731" lon="-1.451347">
      <ele>640</ele>
      <time>2025-12-18T13:15:47.000Z</time>
    </trkpt>
    <trkpt lat="43.219502" lon="-1.451324">
      <ele>643</ele>
      <time>2025-12-18T13:16:12.000Z</time>
    </trkpt>
    <trkpt lat="43.219275" lon="-1.451355">
      <ele>646</ele>
      <time>2025-12-18T13:16:35.000Z</time>
    </trkpt>
    <trkpt lat="43.219045" lon="-1.451381">
      <ele>644</ele>
      <time>2025-12-18T13:16:58.000Z</time>
    </trkpt>
    <trkpt lat="43.218816" lon="-1.451392">
      <ele>648</ele>
      <time>2025-12-18T13:17:20.000Z</time>
    </trkpt>
    <trkpt lat="43.218591" lon="-1.451455">
      <ele>649</ele>
      <time>2025-12-18T13:17:40.000Z</time>
    </trkpt>
    <trkpt lat="43.218371" lon="-1.45153">
      <ele>650</ele>
      <time>2025-12-18T13:17:59.000Z</time>
    </trkpt>
    <trkpt lat="43.218137" lon="-1.451582">
      <ele>652</ele>
      <time>2025-12-18T13:18:19.000Z</time>
    </trkpt>
    <trkpt lat="43.217906" lon="-1.451573">
      <ele>653</ele>
      <time>2025-12-18T13:18:39.000Z</time>
    </trkpt>
    <trkpt lat="43.217731" lon="-1.451767">
      <ele>657</ele>
      <time>2025-12-18T13:18:58.000Z</time>
    </trkpt>
    <trkpt lat="43.217519" lon="-1.451898">
      <ele>655</ele>
      <time>2025-12-18T13:19:20.000Z</time>
    </trkpt>
    <trkpt lat="43.217294" lon="-1.451912">
      <ele>666</ele>
      <time>2025-12-18T13:19:41.000Z</time>
    </trkpt>
    <trkpt lat="43.217066" lon="-1.451932">
      <ele>673</ele>
      <time>2025-12-18T13:20:04.000Z</time>
    </trkpt>
    <trkpt lat="43.21684" lon="-1.451944">
      <ele>671</ele>
      <time>2025-12-18T13:20:32.000Z</time>
    </trkpt>
    <trkpt lat="43.216616" lon="-1.45189">
      <ele>675</ele>
      <time>2025-12-18T13:20:57.000Z</time>
    </trkpt>
    <trkpt lat="43.216394" lon="-1.451791">
      <ele>678</ele>
      <time>2025-12-18T13:21:22.000Z</time>
    </trkpt>
    <trkpt lat="43.216175" lon="-1.451663">
      <ele>684</ele>
      <time>2025-12-18T13:21:46.000Z</time>
    </trkpt>
    <trkpt lat="43.21599" lon="-1.451485">
      <ele>687</ele>
      <time>2025-12-18T13:22:11.000Z</time>
    </trkpt>
    <trkpt lat="43.21579" lon="-1.451323">
      <ele>692</ele>
      <time>2025-12-18T13:22:31.000Z</time>
    </trkpt>
    <trkpt lat="43.215577" lon="-1.451199">
      <ele>696</ele>
      <time>2025-12-18T13:22:52.000Z</time>
    </trkpt>
    <trkpt lat="43.215583" lon="-1.451512">
      <ele>691</ele>
      <time>2025-12-18T13:23:14.000Z</time>
    </trkpt>
    <trkpt lat="43.215646" lon="-1.451809">
      <ele>694</ele>
      <time>2025-12-18T13:23:32.000Z</time>
    </trkpt>
    <trkpt lat="43.215735" lon="-1.452107">
      <ele>697</ele>
      <time>2025-12-18T13:23:52.000Z</time>
    </trkpt>
    <trkpt lat="43.21584" lon="-1.45239">
      <ele>701</ele>
      <time>2025-12-18T13:24:10.000Z</time>
    </trkpt>
    <trkpt lat="43.215968" lon="-1.452659">
      <ele>705</ele>
      <time>2025-12-18T13:24:31.000Z</time>
    </trkpt>
    <trkpt lat="43.216142" lon="-1.452856">
      <ele>707</ele>
      <time>2025-12-18T13:24:51.000Z</time>
    </trkpt>
    <trkpt lat="43.216353" lon="-1.452991">
      <ele>707</ele>
      <time>2025-12-18T13:25:11.000Z</time>
    </trkpt>
    <trkpt lat="43.216562" lon="-1.45311">
      <ele>707</ele>
      <time>2025-12-18T13:25:30.000Z</time>
    </trkpt>
    <trkpt lat="43.216735" lon="-1.453314">
      <ele>705</ele>
      <time>2025-12-18T13:25:51.000Z</time>
    </trkpt>
    <trkpt lat="43.216893" lon="-1.453544">
      <ele>704</ele>
      <time>2025-12-18T13:26:13.000Z</time>
    </trkpt>
  </trkseg>
</trk></gpx>